Observation data for Sweetwater on 03/11/2018      Previous  Date  Next       Current Mesonet Observations  Soil Data  Daily Summary Page  Observations in Plain Language
KSW1 110600Z 20004KT 19/M04 A2982 RMK A01 T01891035  RH  022%=      5-min Rain = 0
KSW1 110601Z 20004KT 19/M03 A2982 RMK A01 T01891034  RH  022%=      5-min Rain = 0
KSW1 110602Z 18003KT 19/M03 A2982 RMK A01 T01891034  RH  022%=      5-min Rain = 0
KSW1 110603Z 17003KT 19/M03 A2982 RMK A01 T01871033  RH  022%=      5-min Rain = 0
KSW1 110604Z 19003KT 19/M03 A2982 RMK A01 T01861034  RH  022%=      5-min Rain = 0
KSW1 110605Z 19003KT 19/M04 A2982 RMK A01 T01851035  RH  022%=      5-min Rain = 0
KSW1 110606Z 20003KT 19/M04 A2982 RMK A01 T01851035  RH  022%=      5-min Rain = 0
KSW1 110607Z 21004KT 19/M04 A2982 RMK A01 T01861035  RH  022%=      5-min Rain = 0
KSW1 110608Z 21004KT 19/M04 A2982 RMK A01 T01861036  RH  022%=      5-min Rain = 0
KSW1 110609Z 21005KT 19/M04 A2982 RMK A01 T01861036  RH  022%=      5-min Rain = 0
KSW1 110610Z 21005KT 19/M04 A2982 RMK A01 T01851035  RH  022%=      5-min Rain = 0
KSW1 110611Z 21006KT 18/M03 A2983 RMK A01 T01841034  RH  022%=      5-min Rain = 0
KSW1 110612Z 21004KT 18/M03 A2982 RMK A01 T01821033  RH  023%=      5-min Rain = 0
KSW1 110613Z 20004KT 18/M03 A2982 RMK A01 T01811034  RH  023%=      5-min Rain = 0
KSW1 110614Z 20004KT 18/M03 A2982 RMK A01 T01801034  RH  023%=      5-min Rain = 0
KSW1 110615Z 20003KT 18/M04 A2982 RMK A01 T01801035  RH  023%=      5-min Rain = 0
KSW1 110616Z 19003KT 18/M03 A2982 RMK A01 T01791034  RH  023%=      5-min Rain = 0
KSW1 110617Z 19003KT 18/M03 A2982 RMK A01 T01781034  RH  023%=      5-min Rain = 0
KSW1 110618Z 18002KT 18/M04 A2982 RMK A01 T01771036  RH  023%=      5-min Rain = 0
KSW1 110619Z 18002KT 18/M04 A2982 RMK A01 T01761037  RH  023%=      5-min Rain = 0
KSW1 110620Z 18003KT 18/M04 A2982 RMK A01 T01761037  RH  023%=      5-min Rain = 0
KSW1 110621Z 18002KT 18/M04 A2982 RMK A01 T01751039  RH  023%=      5-min Rain = 0
KSW1 110622Z 18002KT 18/M04 A2982 RMK A01 T01751040  RH  023%=      5-min Rain = 0
KSW1 110623Z 18002KT 17/M04 A2982 RMK A01 T01741041  RH  023%=      5-min Rain = 0
KSW1 110624Z 19002KT 17/M04 A2982 RMK A01 T01741042  RH  022%=      5-min Rain = 0
KSW1 110625Z 19003KT 17/M04 A2982 RMK A01 T01741043  RH  022%=      5-min Rain = 0
KSW1 110626Z 20003KT 17/M04 A2982 RMK A01 T01741043  RH  022%=      5-min Rain = 0
KSW1 110627Z 20004KT 17/M05 A2982 RMK A01 T01731046  RH  022%=      5-min Rain = 0
KSW1 110628Z 19003KT 17/M05 A2982 RMK A01 T01731046  RH  022%=      5-min Rain = 0
KSW1 110629Z 19003KT 17/M05 A2982 RMK A01 T01741047  RH  022%=      5-min Rain = 0
KSW1 110630Z 20003KT 17/M05 A2982 RMK A01 T01741047  RH  022%=      5-min Rain = 0
KSW1 110631Z 21003KT 17/M05 A2982 RMK A01 T01741048  RH  022%=      5-min Rain = 0
KSW1 110632Z 21003KT 17/M05 A2982 RMK A01 T01741048  RH  022%=      5-min Rain = 0
KSW1 110633Z 21002KT 17/M05 A2982 RMK A01 T01731049  RH  021%=      5-min Rain = 0
KSW1 110634Z 21002KT 17/M05 A2982 RMK A01 T01731049  RH  022%=      5-min Rain = 0
KSW1 110635Z 22001KT 17/M05 A2982 RMK A01 T01731050  RH  021%=      5-min Rain = 0
KSW1 110636Z 34001KT 17/M05 A2983 RMK A01 T01741051  RH  021%=      5-min Rain = 0
KSW1 110637Z 35004KT 17/M05 A2983 RMK A01 T01741050  RH  021%=      5-min Rain = 0
KSW1 110638Z 01009KT 17/M05 A2984 RMK A01 T01741048  RH  022%=      5-min Rain = 0
KSW1 110639Z 00010KT 17/M04 A2984 RMK A01 T01711044  RH  023%=      5-min Rain = 0
KSW1 110640Z 34007KT 17/M04 A2984 RMK A01 T01671043  RH  024%=      5-min Rain = 0
KSW1 110641Z 34008KT 16/M04 A2984 RMK A01 T01631040  RH  025%=      5-min Rain = 0
KSW1 110642Z 33007KT 16/M04 A2984 RMK A01 T01601042  RH  025%=      5-min Rain = 0
KSW1 110643Z 33006KT 16/M04 A2984 RMK A01 T01601043  RH  024%=      5-min Rain = 0
KSW1 110644Z 34007KT 16/M04 A2984 RMK A01 T01601044  RH  024%=      5-min Rain = 0
KSW1 110645Z 35008KT 16/M04 A2985 RMK A01 T01591044  RH  024%=      5-min Rain = 0
KSW1 110646Z 00008KT 16/M05 A2985 RMK A01 T01591045  RH  024%=      5-min Rain = 0
KSW1 110647Z 01007KT 16/M05 A2984 RMK A01 T01591046  RH  024%=      5-min Rain = 0
KSW1 110648Z 01008KT 16/M05 A2984 RMK A01 T01591047  RH  024%=      5-min Rain = 0
KSW1 110649Z 02009KT 16/M05 A2984 RMK A01 T01611048  RH  024%=      5-min Rain = 0
KSW1 110650Z 01009KT 16/M05 A2984 RMK A01 T01611048  RH  023%=      5-min Rain = 0
KSW1 110651Z 02009KT 16/M05 A2984 RMK A01 T01601049  RH  023%=      5-min Rain = 0
KSW1 110652Z 03009KT 16/M05 A2984 RMK A01 T01611049  RH  023%=      5-min Rain = 0
KSW1 110653Z 03009KT 16/M05 A2984 RMK A01 T01611048  RH  023%=      5-min Rain = 0
KSW1 110654Z 04008KT 16/M05 A2984 RMK A01 T01601048  RH  024%=      5-min Rain = 0
KSW1 110655Z 05006KT 16/M05 A2984 RMK A01 T01591047  RH  024%=      5-min Rain = 0
KSW1 110656Z 04007KT 16/M04 A2984 RMK A01 T01571044  RH  025%=      5-min Rain = 0
KSW1 110657Z 05007KT 16/M04 A2984 RMK A01 T01561037  RH  026%=      5-min Rain = 0
KSW1 110658Z 05008KT 16/M03 A2984 RMK A01 T01551033  RH  027%=      5-min Rain = 0
KSW1 110659Z 05008KT 16/M03 A2984 RMK A01 T01551031  RH  028%=      5-min Rain = 0
KSW1 110700Z 04009KT 16/M03 A2984 RMK A01 T01551030  RH  028%=      5-min Rain = 0
KSW1 110701Z 05009KT 16/M03 A2984 RMK A01 T01551030  RH  028%=      5-min Rain = 0
KSW1 110702Z 06008KT 16/M03 A2984 RMK A01 T01551030  RH  028%=      5-min Rain = 0
KSW1 110703Z 06007KT 16/M03 A2984 RMK A01 T01551030  RH  028%=      5-min Rain = 0
KSW1 110704Z 06008KT 15/M03 A2984 RMK A01 T01531029  RH  028%=      5-min Rain = 0
KSW1 110705Z 06007KT 15/M03 A2984 RMK A01 T01511026  RH  029%=      5-min Rain = 0
KSW1 110706Z 07007KT 15/M02 A2984 RMK A01 T01511022  RH  030%=      5-min Rain = 0
KSW1 110707Z 07007KT 15/M02 A2984 RMK A01 T01501020  RH  031%=      5-min Rain = 0
KSW1 110708Z 07007KT 15/M02 A2984 RMK A01 T01501017  RH  032%=      5-min Rain = 0
KSW1 110709Z 08006KT 15/M01 A2984 RMK A01 T01491013  RH  033%=      5-min Rain = 0
KSW1 110710Z 07006KT 15/M01 A2985 RMK A01 T01501010  RH  033%=      5-min Rain = 0
KSW1 110711Z 07005KT 15/M01 A2985 RMK A01 T01501010  RH  033%=      5-min Rain = 0
KSW1 110712Z 08005KT 15/M01 A2985 RMK A01 T01501009  RH  034%=      5-min Rain = 0
KSW1 110713Z 08006KT 15/M01 A2985 RMK A01 T01491008  RH  034%=      5-min Rain = 0
KSW1 110714Z 08005KT 15/M01 A2985 RMK A01 T01481008  RH  034%=      5-min Rain = 0
KSW1 110715Z 08004KT 15/M01 A2985 RMK A01 T01481009  RH  034%=      5-min Rain = 0
KSW1 110716Z 07004KT 15/M01 A2985 RMK A01 T01471010  RH  034%=      5-min Rain = 0
KSW1 110717Z 07005KT 15/M01 A2985 RMK A01 T01461011  RH  034%=      5-min Rain = 0
KSW1 110718Z 07005KT 14/M01 A2985 RMK A01 T01441011  RH  034%=      5-min Rain = 0
KSW1 110719Z 07004KT 14/M01 A2985 RMK A01 T01431011  RH  035%=      5-min Rain = 0
KSW1 110720Z 07004KT 14/M01 A2985 RMK A01 T01421009  RH  035%=      5-min Rain = 0
KSW1 110721Z 07004KT 14/M01 A2985 RMK A01 T01421008  RH  036%=      5-min Rain = 0
KSW1 110722Z 07004KT 14/M01 A2985 RMK A01 T01421008  RH  036%=      5-min Rain = 0
KSW1 110723Z 07005KT 14/M01 A2985 RMK A01 T01421008  RH  036%=      5-min Rain = 0
KSW1 110724Z 06005KT 14/M01 A2985 RMK A01 T01421007  RH  036%=      5-min Rain = 0
KSW1 110725Z 06005KT 14/M01 A2985 RMK A01 T01421007  RH  036%=      5-min Rain = 0
KSW1 110726Z 06005KT 14/M01 A2985 RMK A01 T01441006  RH  036%=      5-min Rain = 0
KSW1 110727Z 06005KT 15/M01 A2986 RMK A01 T01471005  RH  035%=      5-min Rain = 0
KSW1 110728Z 06004KT 15/M00 A2986 RMK A01 T01491003  RH  035%=      5-min Rain = 0
KSW1 110729Z 05004KT 15/M00 A2986 RMK A01 T01501002  RH  035%=      5-min Rain = 0
KSW1 110730Z 05004KT 15/M00 A2986 RMK A01 T01501002  RH  035%=      5-min Rain = 0
KSW1 110731Z 05004KT 15/00 A2986 RMK A01 T01470000  RH  037%=      5-min Rain = 0
KSW1 110732Z 05005KT 15/00 A2986 RMK A01 T01480002  RH  037%=      5-min Rain = 0
KSW1 110733Z 04004KT 15/00 A2986 RMK A01 T01490004  RH  037%=      5-min Rain = 0
KSW1 110734Z 01004KT 15/01 A2986 RMK A01 T01500005  RH  037%=      5-min Rain = 0
KSW1 110735Z 02004KT 15/00 A2986 RMK A01 T01490003  RH  037%=      5-min Rain = 0
KSW1 110736Z 03004KT 15/00 A2986 RMK A01 T01480003  RH  037%=      5-min Rain = 0
KSW1 110737Z 04004KT 15/01 A2986 RMK A01 T01480005  RH  038%=      5-min Rain = 0
KSW1 110738Z 03004KT 15/01 A2986 RMK A01 T01490007  RH  038%=      5-min Rain = 0
KSW1 110739Z 01003KT 15/01 A2986 RMK A01 T01490006  RH  038%=      5-min Rain = 0
KSW1 110740Z 01004KT 15/01 A2986 RMK A01 T01490007  RH  038%=      5-min Rain = 0
KSW1 110741Z 01007KT 15/01 A2986 RMK A01 T01480008  RH  038%=      5-min Rain = 0
KSW1 110742Z 00011KT 15/01 A2987 RMK A01 T01470006  RH  038%=      5-min Rain = 0
KSW1 110743Z 36012KT 15/01 A2987 RMK A01 T01450005  RH  038%=      5-min Rain = 0
KSW1 110744Z 35012KT 15/M00 A2987 RMK A01 T01451001  RH  037%=      5-min Rain = 0
KSW1 110745Z 36011KT 14/M01 A2987 RMK A01 T01431005  RH  036%=      5-min Rain = 0
KSW1 110746Z 36014KT 14/M01 A2988 RMK A01 T01411006  RH  036%=      5-min Rain = 0
KSW1 110747Z 36015KT 14/M00 A2989 RMK A01 T01411002  RH  037%=      5-min Rain = 0
KSW1 110748Z 00017KT 14/00 A2989 RMK A01 T01410003  RH  039%=      5-min Rain = 0
KSW1 110749Z 01018G23KT 14/01 A2989 RMK A01 T01440011  RH  040%=      5-min Rain = 0
KSW1 110750Z 01016G21KT 15/02 A2989 RMK A01 T01480019  RH  042%=      5-min Rain = 0
KSW1 110751Z 01015KT 15/02 A2989 RMK A01 T01510021  RH  041%=      5-min Rain = 0
KSW1 110752Z 01016KT 15/02 A2989 RMK A01 T01520022  RH  041%=      5-min Rain = 0
KSW1 110753Z 01016KT 15/02 A2989 RMK A01 T01530023  RH  041%=      5-min Rain = 0
KSW1 110754Z 01014G19KT 15/02 A2989 RMK A01 T01530022  RH  041%=      5-min Rain = 0
KSW1 110755Z 01014G19KT 15/02 A299 RMK A01 T01520022  RH  041%=      5-min Rain = 0
KSW1 110756Z 01015KT 15/02 A299 RMK A01 T01520022  RH  042%=      5-min Rain = 0
KSW1 110757Z 01016G21KT 15/03 A299 RMK A01 T01520025  RH  042%=      5-min Rain = 0
KSW1 110758Z 01015KT 15/03 A299 RMK A01 T01520026  RH  043%=      5-min Rain = 0
KSW1 110759Z 02017KT 15/03 A2989 RMK A01 T01530027  RH  043%=      5-min Rain = 0
KSW1 110800Z 02017KT 15/03 A299 RMK A01 T01530027  RH  043%=      5-min Rain = 0
KSW1 110801Z 02015KT 15/03 A299 RMK A01 T01530028  RH  043%=      5-min Rain = 0
KSW1 110802Z 02017KT 15/03 A299 RMK A01 T01530028  RH  043%=      5-min Rain = 0
KSW1 110803Z 02016G21KT 15/03 A299 RMK A01 T01530026  RH  043%=      5-min Rain = 0
KSW1 110804Z 02015G20KT 15/03 A299 RMK A01 T01530025  RH  042%=      5-min Rain = 0
KSW1 110805Z 02016KT 15/02 A299 RMK A01 T01520024  RH  042%=      5-min Rain = 0
KSW1 110806Z 02019G24KT 15/02 A299 RMK A01 T01510022  RH  042%=      5-min Rain = 0
KSW1 110807Z 02022KT 15/02 A299 RMK A01 T01510020  RH  041%=      5-min Rain = 0
KSW1 110808Z 03018KT 15/02 A299 RMK A01 T01500019  RH  041%=      5-min Rain = 0
KSW1 110809Z 03020KT 15/02 A299 RMK A01 T01500020  RH  041%=      5-min Rain = 0
KSW1 110810Z 03021G26KT 15/02 A299 RMK A01 T01490022  RH  042%=      5-min Rain = 0
KSW1 110811Z 03018KT 15/03 A299 RMK A01 T01490025  RH  043%=      5-min Rain = 0
KSW1 110812Z 02015G20KT 15/03 A299 RMK A01 T01480025  RH  043%=      5-min Rain = 0
KSW1 110813Z 03018KT 15/03 A299 RMK A01 T01470028  RH  045%=      5-min Rain = 0
KSW1 110814Z 02020KT 15/03 A2991 RMK A01 T01460032  RH  046%=      5-min Rain = 0
KSW1 110815Z 02017KT 15/03 A2991 RMK A01 T01460034  RH  047%=      5-min Rain = 0
KSW1 110816Z 02016G21KT 15/03 A2991 RMK A01 T01450034  RH  047%=      5-min Rain = 0
KSW1 110817Z 02018KT 15/04 A2991 RMK A01 T01450039  RH  049%=      5-min Rain = 0
KSW1 110818Z 01017KT 15/04 A2991 RMK A01 T01450041  RH  050%=      5-min Rain = 0
KSW1 110819Z 01017KT 14/04 A2991 RMK A01 T01440043  RH  051%=      5-min Rain = 0
KSW1 110820Z 02017G23KT 14/05 A2991 RMK A01 T01440046  RH  052%=      5-min Rain = 0
KSW1 110821Z 01018KT 14/05 A2991 RMK A01 T01440051  RH  054%=      5-min Rain = 0
KSW1 110822Z 02017KT 14/05 A2992 RMK A01 T01440054  RH  055%=      5-min Rain = 0
KSW1 110823Z 02014G20KT 14/06 A2992 RMK A01 T01440056  RH  056%=      5-min Rain = 0
KSW1 110824Z 02017KT 14/06 A2992 RMK A01 T01430059  RH  057%=      5-min Rain = 0
KSW1 110825Z 02016G21KT 14/06 A2992 RMK A01 T01430063  RH  059%=      5-min Rain = 0
KSW1 110826Z 02016KT 14/07 A2992 RMK A01 T01430065  RH  060%=      5-min Rain = 0
KSW1 110827Z 02018G23KT 14/07 A2992 RMK A01 T01430071  RH  062%=      5-min Rain = 0
KSW1 110828Z 03020KT 14/08 A2992 RMK A01 T01430077  RH  065%=      5-min Rain = 0
KSW1 110829Z 03021G27KT 14/08 A2992 RMK A01 T01440081  RH  066%=      5-min Rain = 0
KSW1 110830Z 03020G25KT 15/08 A2992 RMK A01 T01450084  RH  067%=      5-min Rain = 0
KSW1 110831Z 03018KT 15/09 A2992 RMK A01 T01450085  RH  067%=      5-min Rain = 0
KSW1 110832Z 03016G21KT 15/09 A2992 RMK A01 T01450085  RH  067%=      5-min Rain = 0
KSW1 110833Z 03020KT 15/09 A2992 RMK A01 T01450086  RH  068%=      5-min Rain = 0
KSW1 110834Z 03020KT 15/09 A2992 RMK A01 T01450087  RH  068%=      5-min Rain = 0
KSW1 110835Z 03018KT 15/09 A2992 RMK A01 T01450088  RH  069%=      5-min Rain = 0
KSW1 110836Z 03019G24KT 15/09 A2992 RMK A01 T01450089  RH  069%=      5-min Rain = 0
KSW1 110837Z 03019G26KT 15/09 A2992 RMK A01 T01450089  RH  069%=      5-min Rain = 0
KSW1 110838Z 03018KT 15/09 A2992 RMK A01 T01450089  RH  069%=      5-min Rain = 0
KSW1 110839Z 03019KT 15/09 A2993 RMK A01 T01450090  RH  070%=      5-min Rain = 0
KSW1 110840Z 03016KT 15/09 A2993 RMK A01 T01450090  RH  070%=      5-min Rain = 0
KSW1 110841Z 03018KT 15/09 A2993 RMK A01 T01450090  RH  070%=      5-min Rain = 0
KSW1 110842Z 03015KT 15/09 A2993 RMK A01 T01450091  RH  070%=      5-min Rain = 0
KSW1 110843Z 03018G25KT 15/09 A2993 RMK A01 T01450091  RH  070%=      5-min Rain = 0
KSW1 110844Z 03017KT 15/09 A2993 RMK A01 T01450090  RH  070%=      5-min Rain = 0
KSW1 110845Z 03018G23KT 15/09 A2993 RMK A01 T01450091  RH  070%=      5-min Rain = 0
KSW1 110846Z 03018KT 14/09 A2993 RMK A01 T01440090  RH  070%=      5-min Rain = 0
KSW1 110847Z 03016KT 14/09 A2993 RMK A01 T01440090  RH  070%=      5-min Rain = 0
KSW1 110848Z 03016G21KT 14/09 A2993 RMK A01 T01440090  RH  070%=      5-min Rain = 0
KSW1 110849Z 03018G23KT 14/09 A2993 RMK A01 T01430089  RH  070%=      5-min Rain = 0
KSW1 110850Z 03017KT 14/09 A2993 RMK A01 T01430089  RH  070%=      5-min Rain = 0
KSW1 110851Z 03018KT 14/09 A2993 RMK A01 T01430089  RH  070%=      5-min Rain = 0
KSW1 110852Z 03017G22KT 14/09 A2993 RMK A01 T01430089  RH  070%=      5-min Rain = 0
KSW1 110853Z 03017G22KT 14/09 A2993 RMK A01 T01420089  RH  070%=      5-min Rain = 0
KSW1 110854Z 03015G21KT 14/09 A2993 RMK A01 T01420089  RH  070%=      5-min Rain = 0
KSW1 110855Z 03017KT 14/09 A2993 RMK A01 T01410088  RH  070%=      5-min Rain = 0
KSW1 110856Z 02016KT 14/09 A2993 RMK A01 T01410088  RH  070%=      5-min Rain = 0
KSW1 110857Z 03015G20KT 14/09 A2993 RMK A01 T01410088  RH  070%=      5-min Rain = 0
KSW1 110858Z 03016G24KT 14/09 A2993 RMK A01 T01400087  RH  071%=      5-min Rain = 0
KSW1 110859Z 03017G22KT 14/09 A2993 RMK A01 T01400088  RH  071%=      5-min Rain = 0
KSW1 110900Z 03014KT 14/09 A2993 RMK A01 T01400087  RH  070%=      5-min Rain = 0
KSW1 110901Z 03015KT 14/09 A2993 RMK A01 T01400087  RH  070%=      5-min Rain = 0
KSW1 110902Z 03014KT 14/09 A2994 RMK A01 T01390086  RH  070%=      5-min Rain = 0
KSW1 110903Z 03015KT 14/09 A2994 RMK A01 T01380086  RH  071%=      5-min Rain = 0
KSW1 110904Z 03015KT 14/09 A2994 RMK A01 T01380086  RH  071%=      5-min Rain = 0
KSW1 110905Z 03016KT 14/09 A2993 RMK A01 T01380086  RH  071%=      5-min Rain = 0
KSW1 110906Z 03016G22KT 14/09 A2993 RMK A01 T01370086  RH  071%=      5-min Rain = 0
KSW1 110907Z 03017KT 14/09 A2993 RMK A01 T01370086  RH  071%=      5-min Rain = 0
KSW1 110908Z 03015G20KT 14/09 A2993 RMK A01 T01370086  RH  071%=      5-min Rain = 0
KSW1 110909Z 03014G22KT 14/09 A2993 RMK A01 T01370086  RH  071%=      5-min Rain = 0
KSW1 110910Z 02015G20KT 14/09 A2993 RMK A01 T01370086  RH  071%=      5-min Rain = 0
KSW1 110911Z 03015KT 14/09 A2994 RMK A01 T01360086  RH  071%=      5-min Rain = 0
KSW1 110912Z 02014KT 14/09 A2994 RMK A01 T01360085  RH  071%=      5-min Rain = 0
KSW1 110913Z 02015KT 14/09 A2994 RMK A01 T01360085  RH  071%=      5-min Rain = 0
KSW1 110914Z 03015KT 14/09 A2993 RMK A01 T01350085  RH  071%=      5-min Rain = 0
KSW1 110915Z 03014KT 14/08 A2993 RMK A01 T01350084  RH  071%=      5-min Rain = 0
KSW1 110916Z 02016KT 14/08 A2994 RMK A01 T01350084  RH  071%=      5-min Rain = 0
KSW1 110917Z 03016G21KT 13/08 A2994 RMK A01 T01340084  RH  072%=      5-min Rain = 0
KSW1 110918Z 03017KT 13/08 A2994 RMK A01 T01340084  RH  072%=      5-min Rain = 0
KSW1 110919Z 03015KT 14/09 A2993 RMK A01 T01350085  RH  072%=      5-min Rain = 0
KSW1 110920Z 03016KT 14/09 A2993 RMK A01 T01350086  RH  072%=      5-min Rain = 0
KSW1 110921Z 03019KT 13/09 A2993 RMK A01 T01340087  RH  073%=      5-min Rain = 0
KSW1 110922Z 03018G24KT 14/09 A2994 RMK A01 T01350088  RH  073%=      5-min Rain = 0
KSW1 110923Z 03017KT 14/09 A2994 RMK A01 T01350089  RH  074%=      5-min Rain = 0
KSW1 110924Z 03019KT 14/09 A2994 RMK A01 T01350090  RH  074%=      5-min Rain = 0
KSW1 110925Z 03016KT 14/09 A2994 RMK A01 T01350090  RH  074%=      5-min Rain = 0
KSW1 110926Z 03016KT 14/09 A2994 RMK A01 T01360091  RH  074%=      5-min Rain = 0
KSW1 110927Z 03017KT 14/09 A2994 RMK A01 T01350092  RH  075%=      5-min Rain = 0
KSW1 110928Z 03015KT 14/09 A2994 RMK A01 T01350092  RH  075%=      5-min Rain = 0
KSW1 110929Z 03017KT 14/09 A2994 RMK A01 T01360093  RH  075%=      5-min Rain = 0
KSW1 110930Z 03017KT 14/09 A2994 RMK A01 T01350094  RH  076%=      5-min Rain = 0
KSW1 110931Z 03016KT 14/09 A2994 RMK A01 T01350094  RH  076%=      5-min Rain = 0
KSW1 110932Z 03015G21KT 14/09 A2994 RMK A01 T01350094  RH  076%=      5-min Rain = 0
KSW1 110933Z 03018KT 14/10 A2994 RMK A01 T01350095  RH  076%=      5-min Rain = 0
KSW1 110934Z 03016KT 14/10 A2994 RMK A01 T01350095  RH  077%=      5-min Rain = 0
KSW1 110935Z 03016KT 14/10 A2994 RMK A01 T01350095  RH  077%=      5-min Rain = 0
KSW1 110936Z 03016G21KT 14/10 A2994 RMK A01 T01350095  RH  077%=      5-min Rain = 0
KSW1 110937Z 03015KT 14/10 A2994 RMK A01 T01350096  RH  077%=      5-min Rain = 0
KSW1 110938Z 03016KT 14/10 A2994 RMK A01 T01350097  RH  078%=      5-min Rain = 0
KSW1 110939Z 02016KT 14/10 A2994 RMK A01 T01350097  RH  078%=      5-min Rain = 0
KSW1 110940Z 03017KT 14/10 A2994 RMK A01 T01350098  RH  078%=      5-min Rain = 0
KSW1 110941Z 03017KT 14/10 A2994 RMK A01 T01360099  RH  078%=      5-min Rain = 0
KSW1 110942Z 03018KT 14/10 A2994 RMK A01 T01360098  RH  078%=      5-min Rain = 0
KSW1 110943Z 03017KT 14/10 A2994 RMK A01 T01360099  RH  078%=      5-min Rain = 0
KSW1 110944Z 02017G22KT 14/10 A2994 RMK A01 T01360100  RH  078%=      5-min Rain = 0
KSW1 110945Z 02019KT 14/10 A2994 RMK A01 T01360100  RH  079%=      5-min Rain = 0
KSW1 110946Z 03017KT 14/10 A2995 RMK A01 T01370100  RH  079%=      5-min Rain = 0
KSW1 110947Z 02015KT 14/10 A2995 RMK A01 T01370101  RH  078%=      5-min Rain = 0
KSW1 110948Z 03018G23KT 14/10 A2995 RMK A01 T01370101  RH  078%=      5-min Rain = 0
KSW1 110949Z 02018KT 14/10 A2995 RMK A01 T01380101  RH  079%=      5-min Rain = 0
KSW1 110950Z 03015G20KT 14/10 A2995 RMK A01 T01380101  RH  078%=      5-min Rain = 0
KSW1 110951Z 03019G25KT 14/10 A2995 RMK A01 T01380102  RH  078%=      5-min Rain = 0
KSW1 110952Z 02015KT 14/10 A2995 RMK A01 T01380101  RH  079%=      5-min Rain = 0
KSW1 110953Z 02017G24KT 14/10 A2995 RMK A01 T01380101  RH  078%=      5-min Rain = 0
KSW1 110954Z 03019KT 14/10 A2995 RMK A01 T01380102  RH  078%=      5-min Rain = 0
KSW1 110955Z 02017G22KT 14/10 A2995 RMK A01 T01380102  RH  078%=      5-min Rain = 0
KSW1 110956Z 02016G22KT 14/10 A2995 RMK A01 T01380102  RH  078%=      5-min Rain = 0
KSW1 110957Z 02019KT 14/10 A2995 RMK A01 T01380101  RH  078%=      5-min Rain = 0
KSW1 110958Z 02017KT 14/10 A2995 RMK A01 T01380100  RH  078%=      5-min Rain = 0
KSW1 110959Z 02019KT 14/10 A2995 RMK A01 T01380099  RH  077%=      5-min Rain = 0
KSW1 111000Z 02022G27KT 14/09 A2995 RMK A01 T01380091  RH  073%=      5-min Rain = 0
KSW1 111001Z 02027G32KT 14/08 A2996 RMK A01 T01380081  RH  068%=      5-min Rain = 0
KSW1 111002Z 02024G29KT 14/08 A2996 RMK A01 T01380076  RH  066%=      5-min Rain = 0
KSW1 111003Z 02024KT 14/07 A2996 RMK A01 T01380074  RH  066%=      5-min Rain = 0
KSW1 111004Z 02024KT 14/07 A2996 RMK A01 T01370071  RH  064%=      5-min Rain = 0
KSW1 111005Z 02020G25KT 14/07 A2996 RMK A01 T01370068  RH  063%=      5-min Rain = 0
KSW1 111006Z 02021G26KT 14/07 A2996 RMK A01 T01370067  RH  063%=      5-min Rain = 0
KSW1 111007Z 02025KT 14/06 A2996 RMK A01 T01360064  RH  062%=      5-min Rain = 0
KSW1 111008Z 03021G26KT 14/06 A2996 RMK A01 T01360062  RH  061%=      5-min Rain = 0
KSW1 111009Z 03024G29KT 14/06 A2996 RMK A01 T01360061  RH  060%=      5-min Rain = 0
KSW1 111010Z 03023G30KT 14/06 A2996 RMK A01 T01360059  RH  060%=      5-min Rain = 0
KSW1 111011Z 03022G28KT 14/06 A2996 RMK A01 T01350055  RH  058%=      5-min Rain = 0
KSW1 111012Z 03023G30KT 14/05 A2996 RMK A01 T01350053  RH  057%=      5-min Rain = 0
KSW1 111013Z 03023G29KT 14/05 A2996 RMK A01 T01350052  RH  057%=      5-min Rain = 0
KSW1 111014Z 03025G30KT 14/05 A2996 RMK A01 T01350051  RH  057%=      5-min Rain = 0
KSW1 111015Z 03023G33KT 14/05 A2996 RMK A01 T01350048  RH  056%=      5-min Rain = 0
KSW1 111016Z 03026KT 14/05 A2996 RMK A01 T01350045  RH  055%=      5-min Rain = 0
KSW1 111017Z 03024G31KT 14/04 A2996 RMK A01 T01350044  RH  054%=      5-min Rain = 0
KSW1 111018Z 02023KT 14/04 A2996 RMK A01 T01350044  RH  054%=      5-min Rain = 0
KSW1 111019Z 02023KT 14/04 A2997 RMK A01 T01350043  RH  054%=      5-min Rain = 0
KSW1 111020Z 02021G26KT 14/04 A2997 RMK A01 T01350042  RH  053%=      5-min Rain = 0
KSW1 111021Z 02020G27KT 14/04 A2997 RMK A01 T01350041  RH  053%=      5-min Rain = 0
KSW1 111022Z 02021G26KT 13/04 A2997 RMK A01 T01340041  RH  053%=      5-min Rain = 0
KSW1 111023Z 02020G25KT 13/04 A2997 RMK A01 T01330040  RH  053%=      5-min Rain = 0
KSW1 111024Z 03022G31KT 13/04 A2997 RMK A01 T01320038  RH  053%=      5-min Rain = 0
KSW1 111025Z 02022G27KT 13/04 A2997 RMK A01 T01310036  RH  052%=      5-min Rain = 0
KSW1 111026Z 02020G25KT 13/04 A2997 RMK A01 T01310035  RH  052%=      5-min Rain = 0
KSW1 111027Z 02027G33KT 13/03 A2997 RMK A01 T01300032  RH  051%=      5-min Rain = 0
KSW1 111028Z 02024G30KT 13/03 A2997 RMK A01 T01300031  RH  051%=      5-min Rain = 0
KSW1 111029Z 03022KT 13/03 A2997 RMK A01 T01290031  RH  051%=      5-min Rain = 0
KSW1 111030Z 02027G32KT 13/03 A2997 RMK A01 T01290029  RH  051%=      5-min Rain = 0
KSW1 111031Z 02029G34KT 13/03 A2998 RMK A01 T01290026  RH  050%=      5-min Rain = 0
KSW1 111032Z 02027G33KT 13/02 A2998 RMK A01 T01280023  RH  049%=      5-min Rain = 0
KSW1 111033Z 02030G37KT 13/02 A2998 RMK A01 T01280020  RH  048%=      5-min Rain = 0
KSW1 111034Z 03027G35KT 13/02 A2998 RMK A01 T01270017  RH  047%=      5-min Rain = 0
KSW1 111035Z 03032G40KT 13/02 A2998 RMK A01 T01270016  RH  047%=      5-min Rain = 0
KSW1 111036Z 03031G39KT 13/01 A2998 RMK A01 T01270014  RH  046%=      5-min Rain = 0
KSW1 111037Z 03031G36KT 13/01 A2998 RMK A01 T01270012  RH  046%=      5-min Rain = 0
KSW1 111038Z 03029G34KT 13/01 A2998 RMK A01 T01270012  RH  045%=      5-min Rain = 0
KSW1 111039Z 03025G30KT 13/01 A2998 RMK A01 T01260011  RH  045%=      5-min Rain = 0
KSW1 111040Z 03027G32KT 13/01 A2998 RMK A01 T01260011  RH  046%=      5-min Rain = 0
KSW1 111041Z 03030G35KT 13/01 A2999 RMK A01 T01250011  RH  046%=      5-min Rain = 0
KSW1 111042Z 03024G30KT 13/01 A2999 RMK A01 T01250011  RH  046%=      5-min Rain = 0
KSW1 111043Z 03024G32KT 13/01 A2999 RMK A01 T01250011  RH  046%=      5-min Rain = 0
KSW1 111044Z 04019KT 12/01 A2998 RMK A01 T01240011  RH  046%=      5-min Rain = 0
KSW1 111045Z 03025G30KT 12/01 A2999 RMK A01 T01230011  RH  046%=      5-min Rain = 0
KSW1 111046Z 04024G30KT 12/01 A2999 RMK A01 T01230010  RH  046%=      5-min Rain = 0
KSW1 111047Z 03024G30KT 12/01 A2999 RMK A01 T01230010  RH  046%=      5-min Rain = 0
KSW1 111048Z 03022KT 12/01 A2999 RMK A01 T01230010  RH  046%=      5-min Rain = 0
KSW1 111049Z 03023G30KT 12/01 A2999 RMK A01 T01230010  RH  046%=      5-min Rain = 0
KSW1 111050Z 03024G32KT 12/01 A2999 RMK A01 T01230010  RH  046%=      5-min Rain = 0
KSW1 111051Z 03026G31KT 12/01 A2999 RMK A01 T01230010  RH  046%=      5-min Rain = 0
KSW1 111052Z 03024G30KT 12/01 A2999 RMK A01 T01230010  RH  046%=      5-min Rain = 0
KSW1 111053Z 03025G30KT 12/01 A30 RMK A01 T01220009  RH  046%=      5-min Rain = 0
KSW1 111054Z 04026KT 12/01 A30 RMK A01 T01220010  RH  046%=      5-min Rain = 0
KSW1 111055Z 03028G34KT 12/01 A30 RMK A01 T01220009  RH  046%=      5-min Rain = 0
KSW1 111056Z 03023KT 12/01 A30 RMK A01 T01220008  RH  046%=      5-min Rain = 0
KSW1 111057Z 03020G27KT 12/01 A30 RMK A01 T01220009  RH  046%=      5-min Rain = 0
KSW1 111058Z 03023KT 12/01 A30 RMK A01 T01220009  RH  046%=      5-min Rain = 0
KSW1 111059Z 03026G34KT 12/01 A30 RMK A01 T01210008  RH  046%=      5-min Rain = 0
KSW1 111100Z 03023KT 12/01 A30 RMK A01 T01220008  RH  046%=      5-min Rain = 0
KSW1 111101Z 03026G35KT 12/01 A30 RMK A01 T01210008  RH  046%=      5-min Rain = 0
KSW1 111102Z 03020G25KT 12/01 A30 RMK A01 T01220008  RH  046%=      5-min Rain = 0
KSW1 111103Z 03025G30KT 12/01 A30 RMK A01 T01210008  RH  046%=      5-min Rain = 0
KSW1 111104Z 04021G26KT 12/01 A30 RMK A01 T01210008  RH  046%=      5-min Rain = 0
KSW1 111105Z 03029KT 12/01 A30 RMK A01 T01210008  RH  046%=      5-min Rain = 0
KSW1 111106Z 03025G30KT 12/01 A30 RMK A01 T01210007  RH  046%=      5-min Rain = 0
KSW1 111107Z 03027KT 12/01 A30 RMK A01 T01210007  RH  046%=      5-min Rain = 0
KSW1 111108Z 03022G32KT 12/01 A30 RMK A01 T01210006  RH  045%=      5-min Rain = 0
KSW1 111109Z 04025G32KT 12/01 A30 RMK A01 T01200006  RH  045%=      5-min Rain = 0
KSW1 111110Z 03026G33KT 12/01 A30 RMK A01 T01200006  RH  045%=      5-min Rain = 0
KSW1 111111Z 03018KT 12/01 A30 RMK A01 T01200006  RH  045%=      5-min Rain = 0
KSW1 111112Z 03027G34KT 12/01 A30 RMK A01 T01190006  RH  046%=      5-min Rain = 0
KSW1 111113Z 03024G32KT 12/01 A30 RMK A01 T01190005  RH  045%=      5-min Rain = 0
KSW1 111114Z 04025G34KT 12/01 A30 RMK A01 T01190005  RH  045%=      5-min Rain = 0
KSW1 111115Z 03029G39KT 12/00 A30 RMK A01 T01190003  RH  045%=      5-min Rain = 0
KSW1 111116Z 04028G36KT 12/00 A30 RMK A01 T01190002  RH  044%=      5-min Rain = 0
KSW1 111117Z 03030G36KT 12/00 A30 RMK A01 T01200001  RH  044%=      5-min Rain = 0
KSW1 111118Z 03027KT 12/00 A30 RMK A01 T01200001  RH  044%=      5-min Rain = 0
KSW1 111119Z 04028G35KT 12/00 A30 RMK A01 T01200001  RH  044%=      5-min Rain = 0
KSW1 111120Z 03025G31KT 12/00 A30 RMK A01 T01190001  RH  044%=      5-min Rain = 0
KSW1 111121Z 04026KT 12/00 A30 RMK A01 T01190000  RH  044%=      5-min Rain = 0
KSW1 111122Z 04028G35KT 12/00 A30 RMK A01 T01200001  RH  044%=      5-min Rain = 0
KSW1 111123Z 03031KT 12/00 A30 RMK A01 T011900-0  RH  044%=      5-min Rain = 0
KSW1 111124Z 04024G33KT 12/M00 A30 RMK A01 T01191001  RH  044%=      5-min Rain = 0
KSW1 111125Z 03031G36KT 12/00 A30 RMK A01 T011900-0  RH  044%=      5-min Rain = 0
KSW1 111126Z 04028G33KT 12/M00 A30 RMK A01 T01191001  RH  043%=      5-min Rain = 0
KSW1 111127Z 03027KT 12/M00 A30 RMK A01 T01201001  RH  043%=      5-min Rain = 0
KSW1 111128Z 03027G37KT 12/M00 A30 RMK A01 T01201001  RH  043%=      5-min Rain = 0
KSW1 111129Z 03029G35KT 12/M00 A3001 RMK A01 T01191001  RH  043%=      5-min Rain = 0
KSW1 111130Z 03024G31KT 12/M00 A3001 RMK A01 T01191001  RH  043%=      5-min Rain = 0
KSW1 111131Z 04028G34KT 12/M00 A3001 RMK A01 T01191001  RH  043%=      5-min Rain = 0
KSW1 111132Z 03027G32KT 12/M00 A3001 RMK A01 T01191002  RH  043%=      5-min Rain = 0
KSW1 111133Z 04026G33KT 12/M00 A3001 RMK A01 T01191002  RH  043%=      5-min Rain = 0
KSW1 111134Z 03025G32KT 12/M00 A3001 RMK A01 T01191002  RH  043%=      5-min Rain = 0
KSW1 111135Z 04028G34KT 12/M00 A3001 RMK A01 T01191002  RH  043%=      5-min Rain = 0
KSW1 111136Z 04024KT 12/M00 A3001 RMK A01 T01191003  RH  043%=      5-min Rain = 0
KSW1 111137Z 03029G35KT 12/M00 A3001 RMK A01 T01181003  RH  043%=      5-min Rain = 0
KSW1 111138Z 03030G38KT 12/M00 A3001 RMK A01 T01181004  RH  043%=      5-min Rain = 0
KSW1 111139Z 03027KT 12/M00 A3001 RMK A01 T01181004  RH  043%=      5-min Rain = 0
KSW1 111140Z 04025KT 12/M00 A3001 RMK A01 T01181004  RH  043%=      5-min Rain = 0
KSW1 111141Z 03020G26KT 12/M00 A3001 RMK A01 T01181003  RH  043%=      5-min Rain = 0
KSW1 111142Z 04026G35KT 12/M00 A3001 RMK A01 T01171004  RH  043%=      5-min Rain = 0
KSW1 111143Z 03025G32KT 12/M00 A3001 RMK A01 T01171004  RH  043%=      5-min Rain = 0
KSW1 111144Z 03024G32KT 12/M00 A3001 RMK A01 T01171004  RH  043%=      5-min Rain = 0
KSW1 111145Z 03029G35KT 12/M00 A3002 RMK A01 T01171004  RH  043%=      5-min Rain = 0
KSW1 111146Z 03028G34KT 12/M00 A3002 RMK A01 T01171004  RH  043%=      5-min Rain = 0
KSW1 111147Z 03027G32KT 12/M01 A3002 RMK A01 T01181005  RH  043%=      5-min Rain = 0
KSW1 111148Z 03024KT 12/M00 A3002 RMK A01 T01181004  RH  043%=      5-min Rain = 0
KSW1 111149Z 03028G33KT 12/M00 A3002 RMK A01 T01181004  RH  043%=      5-min Rain = 0
KSW1 111150Z 03030G36KT 12/M01 A3002 RMK A01 T01181005  RH  043%=      5-min Rain = 0
KSW1 111151Z 03030KT 12/M01 A3002 RMK A01 T01181005  RH  043%=      5-min Rain = 0
KSW1 111152Z 03026G34KT 12/M01 A3002 RMK A01 T01181005  RH  043%=      5-min Rain = 0
KSW1 111153Z 04027G33KT 12/M01 A3002 RMK A01 T01181005  RH  043%=      5-min Rain = 0
KSW1 111154Z 04025G35KT 12/M01 A3002 RMK A01 T01181005  RH  043%=      5-min Rain = 0
KSW1 111155Z 04027G35KT 12/M01 A3002 RMK A01 T01171005  RH  043%=      5-min Rain = 0
KSW1 111156Z 03030KT 12/M01 A3002 RMK A01 T01171006  RH  043%=      5-min Rain = 0
KSW1 111157Z 03025G31KT 12/M01 A3002 RMK A01 T01171005  RH  043%=      5-min Rain = 0
KSW1 111158Z 03022G28KT 12/M01 A3002 RMK A01 T01171005  RH  043%=      5-min Rain = 0
KSW1 111159Z 04027G33KT 12/M01 A3002 RMK A01 T01171005  RH  043%=      5-min Rain = 0
KSW1 111200Z 03026G33KT 12/M01 A3002 RMK A01 T01171005  RH  043%=      5-min Rain = 0
KSW1 111201Z 03029G35KT 12/M01 A3002 RMK A01 T01171006  RH  043%=      5-min Rain = 0
KSW1 111202Z 03027G33KT 12/M01 A3002 RMK A01 T01171006  RH  043%=      5-min Rain = 0
KSW1 111203Z 04024G33KT 12/M01 A3002 RMK A01 T01171006  RH  043%=      5-min Rain = 0
KSW1 111204Z 03027G32KT 12/M01 A3002 RMK A01 T01171005  RH  043%=      5-min Rain = 0
KSW1 111205Z 04025KT 12/M01 A3002 RMK A01 T01161006  RH  043%=      5-min Rain = 0
KSW1 111206Z 04029G35KT 12/M01 A3003 RMK A01 T01171005  RH  043%=      5-min Rain = 0
KSW1 111207Z 04028G34KT 12/M01 A3003 RMK A01 T01171005  RH  043%=      5-min Rain = 0
KSW1 111208Z 04026G33KT 12/M01 A3003 RMK A01 T01171005  RH  043%=      5-min Rain = 0
KSW1 111209Z 03024KT 12/M01 A3003 RMK A01 T01171005  RH  043%=      5-min Rain = 0
KSW1 111210Z 04026G31KT 12/M01 A3003 RMK A01 T01171005  RH  043%=      5-min Rain = 0
KSW1 111211Z 04022G27KT 12/M01 A3003 RMK A01 T01161005  RH  043%=      5-min Rain = 0
KSW1 111212Z 04023G29KT 12/M01 A3003 RMK A01 T01161005  RH  043%=      5-min Rain = 0
KSW1 111213Z 03025G32KT 12/M01 A3003 RMK A01 T01161005  RH  043%=      5-min Rain = 0
KSW1 111214Z 04032KT 12/M01 A3003 RMK A01 T01161006  RH  043%=      5-min Rain = 0
KSW1 111215Z 03028G34KT 12/M01 A3003 RMK A01 T01161006  RH  043%=      5-min Rain = 0
KSW1 111216Z 04026G31KT 12/M01 A3003 RMK A01 T01161006  RH  043%=      5-min Rain = 0
KSW1 111217Z 04029G34KT 12/M01 A3004 RMK A01 T01161006  RH  043%=      5-min Rain = 0
KSW1 111218Z 03025G33KT 12/M01 A3003 RMK A01 T01161006  RH  043%=      5-min Rain = 0
KSW1 111219Z 04027G33KT 12/M01 A3003 RMK A01 T01171005  RH  043%=      5-min Rain = 0
KSW1 111220Z 04024G30KT 12/M01 A3003 RMK A01 T01161005  RH  043%=      5-min Rain = 0
KSW1 111221Z 04024KT 12/M01 A3003 RMK A01 T01161005  RH  043%=      5-min Rain = 0
KSW1 111222Z 03026KT 12/M01 A3004 RMK A01 T01161005  RH  043%=      5-min Rain = 0
KSW1 111223Z 04023G31KT 12/M01 A3004 RMK A01 T01161006  RH  043%=      5-min Rain = 0
KSW1 111224Z 03022G27KT 12/M01 A3004 RMK A01 T01161006  RH  043%=      5-min Rain = 0
KSW1 111225Z 04027G32KT 12/M01 A3004 RMK A01 T01151006  RH  043%=      5-min Rain = 0
KSW1 111226Z 04026G31KT 12/M01 A3003 RMK A01 T01151006  RH  043%=      5-min Rain = 0
KSW1 111227Z 04022KT 12/M01 A3003 RMK A01 T01151006  RH  043%=      5-min Rain = 0
KSW1 111228Z 04021G26KT 12/M01 A3003 RMK A01 T01151006  RH  043%=      5-min Rain = 0
KSW1 111229Z 04021G26KT 12/M01 A3004 RMK A01 T01151006  RH  043%=      5-min Rain = 0
KSW1 111230Z 04025G30KT 12/M01 A3004 RMK A01 T01151006  RH  043%=      5-min Rain = 0
KSW1 111231Z 04025KT 12/M01 A3004 RMK A01 T01151007  RH  043%=      5-min Rain = 0
KSW1 111232Z 03019G24KT 12/M01 A3004 RMK A01 T01151007  RH  043%=      5-min Rain = 0
KSW1 111233Z 03023G31KT 12/M01 A3004 RMK A01 T01151007  RH  043%=      5-min Rain = 0
KSW1 111234Z 03025G30KT 11/M01 A3004 RMK A01 T01141008  RH  043%=      5-min Rain = 0
KSW1 111235Z 03025G31KT 12/M01 A3004 RMK A01 T01151008  RH  043%=      5-min Rain = 0
KSW1 111236Z 03019G25KT 12/M01 A3004 RMK A01 T01151008  RH  043%=      5-min Rain = 0
KSW1 111237Z 03019G24KT 11/M01 A3004 RMK A01 T01141008  RH  043%=      5-min Rain = 0
KSW1 111238Z 03022G30KT 11/M01 A3004 RMK A01 T01141008  RH  043%=      5-min Rain = 0
KSW1 111239Z 03017KT 11/M01 A3004 RMK A01 T01141008  RH  043%=      5-min Rain = 0
KSW1 111240Z 03023G30KT 11/M01 A3004 RMK A01 T01141008  RH  043%=      5-min Rain = 0
KSW1 111241Z 04024G29KT 11/M01 A3004 RMK A01 T01141008  RH  043%=      5-min Rain = 0
KSW1 111242Z 03024G31KT 11/M01 A3004 RMK A01 T01141009  RH  043%=      5-min Rain = 0
KSW1 111243Z 03023G29KT 11/M01 A3004 RMK A01 T01141009  RH  043%=      5-min Rain = 0
KSW1 111244Z 04023G28KT 11/M01 A3004 RMK A01 T01141009  RH  043%=      5-min Rain = 0
KSW1 111245Z 04025G31KT 11/M01 A3004 RMK A01 T01141009  RH  043%=      5-min Rain = 0
KSW1 111246Z 04027KT 11/M01 A3005 RMK A01 T01141010  RH  042%=      5-min Rain = 0
KSW1 111247Z 03022KT 11/M01 A3005 RMK A01 T01141010  RH  042%=      5-min Rain = 0
KSW1 111248Z 03025G30KT 11/M01 A3005 RMK A01 T01141010  RH  042%=      5-min Rain = 0
KSW1 111249Z 04024G30KT 11/M01 A3005 RMK A01 T01141010  RH  042%=      5-min Rain = 0
KSW1 111250Z 03025G31KT 11/M01 A3005 RMK A01 T01141011  RH  042%=      5-min Rain = 0
KSW1 111251Z 03022G28KT 11/M01 A3005 RMK A01 T01141012  RH  042%=      5-min Rain = 0
KSW1 111252Z 03020KT 11/M01 A3005 RMK A01 T01141012  RH  042%=      5-min Rain = 0
KSW1 111253Z 03020KT 11/M01 A3005 RMK A01 T01141012  RH  042%=      5-min Rain = 0
KSW1 111254Z 04022G27KT 11/M01 A3005 RMK A01 T01141012  RH  041%=      5-min Rain = 0
KSW1 111255Z 03027KT 11/M01 A3005 RMK A01 T01141013  RH  041%=      5-min Rain = 0
KSW1 111256Z 04025KT 11/M01 A3006 RMK A01 T01141014  RH  041%=      5-min Rain = 0
KSW1 111257Z 04022G27KT 11/M01 A3006 RMK A01 T01141014  RH  041%=      5-min Rain = 0
KSW1 111258Z 04023KT 11/M01 A3006 RMK A01 T01141014  RH  041%=      5-min Rain = 0
KSW1 111259Z 03024G30KT 11/M01 A3006 RMK A01 T01141014  RH  041%=      5-min Rain = 0
KSW1 111300Z 03024G29KT 11/M02 A3006 RMK A01 T01141015  RH  041%=      5-min Rain = 0
KSW1 111301Z 04024KT 11/M02 A3006 RMK A01 T01141015  RH  041%=      5-min Rain = 0
KSW1 111302Z 04026G31KT 11/M02 A3006 RMK A01 T01141016  RH  040%=      5-min Rain = 0
KSW1 111303Z 04025G32KT 11/M02 A3007 RMK A01 T01141016  RH  040%=      5-min Rain = 0
KSW1 111304Z 04024G30KT 11/M02 A3007 RMK A01 T01141018  RH  040%=      5-min Rain = 0
KSW1 111305Z 03023G28KT 11/M02 A3007 RMK A01 T01141018  RH  040%=      5-min Rain = 0
KSW1 111306Z 04024G29KT 11/M02 A3007 RMK A01 T01141018  RH  040%=      5-min Rain = 0
KSW1 111307Z 03023G28KT 11/M02 A3007 RMK A01 T01141018  RH  040%=      5-min Rain = 0
KSW1 111308Z 03024G33KT 11/M02 A3007 RMK A01 T01141018  RH  040%=      5-min Rain = 0
KSW1 111309Z 03024G30KT 11/M02 A3007 RMK A01 T01141018  RH  040%=      5-min Rain = 0
KSW1 111310Z 03019G26KT 12/M02 A3007 RMK A01 T01151018  RH  040%=      5-min Rain = 0
KSW1 111311Z 04019G27KT 11/M02 A3007 RMK A01 T01141018  RH  040%=      5-min Rain = 0
KSW1 111312Z 03020G27KT 11/M02 A3007 RMK A01 T01131018  RH  040%=      5-min Rain = 0
KSW1 111313Z 03020KT 11/M02 A3007 RMK A01 T01141018  RH  040%=      5-min Rain = 0
KSW1 111314Z 03024G29KT 11/M02 A3007 RMK A01 T01131019  RH  040%=      5-min Rain = 0
KSW1 111315Z 03024G29KT 11/M02 A3007 RMK A01 T01141018  RH  040%=      5-min Rain = 0
KSW1 111316Z 04021G29KT 11/M02 A3007 RMK A01 T01131018  RH  040%=      5-min Rain = 0
KSW1 111317Z 03019G27KT 11/M02 A3007 RMK A01 T01131018  RH  040%=      5-min Rain = 0
KSW1 111318Z 04030KT 11/M02 A3007 RMK A01 T01131018  RH  040%=      5-min Rain = 0
KSW1 111319Z 03023G28KT 11/M02 A3007 RMK A01 T01131019  RH  040%=      5-min Rain = 0
KSW1 111320Z 03022G28KT 11/M02 A3007 RMK A01 T01131018  RH  040%=      5-min Rain = 0
KSW1 111321Z 03022G33KT 11/M02 A3007 RMK A01 T01131018  RH  040%=      5-min Rain = 0
KSW1 111322Z 03028G36KT 11/M02 A3007 RMK A01 T01131019  RH  040%=      5-min Rain = 0
KSW1 111323Z 03024G29KT 11/M02 A3007 RMK A01 T01131019  RH  040%=      5-min Rain = 0
KSW1 111324Z 03030KT 11/M02 A3007 RMK A01 T01131019  RH  040%=      5-min Rain = 0
KSW1 111325Z 04030G37KT 11/M02 A3007 RMK A01 T01131019  RH  040%=      5-min Rain = 0
KSW1 111326Z 04028G37KT 11/M02 A3008 RMK A01 T01131019  RH  040%=      5-min Rain = 0
KSW1 111327Z 04029G35KT 11/M02 A3008 RMK A01 T01131019  RH  040%=      5-min Rain = 0
KSW1 111328Z 03029G36KT 11/M02 A3008 RMK A01 T01131018  RH  040%=      5-min Rain = 0
KSW1 111329Z 04026G31KT 11/M02 A3008 RMK A01 T01131018  RH  040%=      5-min Rain = 0
KSW1 111330Z 04025G32KT 11/M02 A3008 RMK A01 T01131018  RH  040%=      5-min Rain = 0
KSW1 111331Z 04024G29KT 11/M02 A3008 RMK A01 T01131017  RH  040%=      5-min Rain = 0
KSW1 111332Z 03023G28KT 11/M02 A3008 RMK A01 T01131017  RH  040%=      5-min Rain = 0
KSW1 111333Z 03022G27KT 11/M02 A3008 RMK A01 T01131016  RH  041%=      5-min Rain = 0
KSW1 111334Z 03022KT 11/M02 A3008 RMK A01 T01131016  RH  041%=      5-min Rain = 0
KSW1 111335Z 04021KT 11/M02 A3008 RMK A01 T01131016  RH  041%=      5-min Rain = 0
KSW1 111336Z 03020KT 11/M02 A3008 RMK A01 T01131016  RH  041%=      5-min Rain = 0
KSW1 111337Z 04020G27KT 11/M02 A3008 RMK A01 T01121016  RH  041%=      5-min Rain = 0
KSW1 111338Z 03024G31KT 11/M02 A3008 RMK A01 T01131015  RH  041%=      5-min Rain = 0
KSW1 111339Z 03022G30KT 11/M02 A3008 RMK A01 T01131015  RH  041%=      5-min Rain = 0
KSW1 111340Z 03025KT 11/M02 A3008 RMK A01 T01131015  RH  041%=      5-min Rain = 0
KSW1 111341Z 04019G25KT 11/M02 A3008 RMK A01 T01131015  RH  041%=      5-min Rain = 0
KSW1 111342Z 03017G22KT 11/M01 A3008 RMK A01 T01131014  RH  041%=      5-min Rain = 0
KSW1 111343Z 03022G31KT 11/M01 A3008 RMK A01 T01131014  RH  041%=      5-min Rain = 0
KSW1 111344Z 03020KT 11/M01 A3009 RMK A01 T01131014  RH  041%=      5-min Rain = 0
KSW1 111345Z 03023G29KT 11/M01 A3009 RMK A01 T01131014  RH  041%=      5-min Rain = 0
KSW1 111346Z 03024G29KT 11/M01 A3009 RMK A01 T01131014  RH  041%=      5-min Rain = 0
KSW1 111347Z 03024G31KT 11/M01 A3009 RMK A01 T01131014  RH  041%=      5-min Rain = 0
KSW1 111348Z 03021KT 11/M01 A3009 RMK A01 T01131014  RH  041%=      5-min Rain = 0
KSW1 111349Z 03018KT 11/M01 A3009 RMK A01 T01131014  RH  041%=      5-min Rain = 0
KSW1 111350Z 03016G22KT 11/M01 A3009 RMK A01 T01131013  RH  041%=      5-min Rain = 0
KSW1 111351Z 04023G30KT 11/M01 A301 RMK A01 T01131014  RH  041%=      5-min Rain = 0
KSW1 111352Z 03027G34KT 11/M02 A301 RMK A01 T01131016  RH  041%=      5-min Rain = 0
KSW1 111353Z 04026G34KT 11/M02 A301 RMK A01 T01131017  RH  040%=      5-min Rain = 0
KSW1 111354Z 04029G34KT 11/M02 A301 RMK A01 T01131018  RH  040%=      5-min Rain = 0
KSW1 111355Z 03029KT 11/M02 A301 RMK A01 T01131019  RH  040%=      5-min Rain = 0
KSW1 111356Z 03027KT 11/M02 A301 RMK A01 T01131019  RH  040%=      5-min Rain = 0
KSW1 111357Z 03022G28KT 11/M02 A301 RMK A01 T01121019  RH  040%=      5-min Rain = 0
KSW1 111358Z 03019G26KT 11/M02 A301 RMK A01 T01121019  RH  040%=      5-min Rain = 0
KSW1 111359Z 03029G36KT 11/M02 A3011 RMK A01 T01121019  RH  040%=      5-min Rain = 0
KSW1 111400Z 04024G32KT 11/M02 A301 RMK A01 T01121020  RH  040%=      5-min Rain = 0
KSW1 111401Z 03021G29KT 11/M02 A3011 RMK A01 T01121019  RH  040%=      5-min Rain = 0
KSW1 111402Z 04022KT 11/M02 A3011 RMK A01 T01121019  RH  040%=      5-min Rain = 0
KSW1 111403Z 04020G27KT 11/M02 A3011 RMK A01 T01121019  RH  040%=      5-min Rain = 0
KSW1 111404Z 03023G28KT 11/M02 A3011 RMK A01 T01121019  RH  040%=      5-min Rain = 0
KSW1 111405Z 04022G31KT 11/M02 A3011 RMK A01 T01121019  RH  040%=      5-min Rain = 0
KSW1 111406Z 04024KT 11/M02 A3011 RMK A01 T01121019  RH  040%=      5-min Rain = 0
KSW1 111407Z 04017G23KT 11/M02 A3011 RMK A01 T01121018  RH  040%=      5-min Rain = 0
KSW1 111408Z 03020G30KT 11/M02 A3011 RMK A01 T01121018  RH  040%=      5-min Rain = 0
KSW1 111409Z 03026G32KT 11/M02 A3011 RMK A01 T01121018  RH  040%=      5-min Rain = 0
KSW1 111410Z 03026G31KT 11/M02 A3011 RMK A01 T01121018  RH  040%=      5-min Rain = 0
KSW1 111411Z 03026KT 11/M02 A3012 RMK A01 T01121019  RH  040%=      5-min Rain = 0
KSW1 111412Z 04025G31KT 11/M02 A3012 RMK A01 T01111019  RH  040%=      5-min Rain = 0
KSW1 111413Z 04023G34KT 11/M02 A3012 RMK A01 T01111019  RH  040%=      5-min Rain = 0
KSW1 111414Z 04022KT 11/M02 A3012 RMK A01 T01111019  RH  040%=      5-min Rain = 0
KSW1 111415Z 04022G29KT 11/M02 A3012 RMK A01 T01111018  RH  040%=      5-min Rain = 0
KSW1 111416Z 03021G27KT 11/M02 A3012 RMK A01 T01111018  RH  041%=      5-min Rain = 0
KSW1 111417Z 03021G27KT 11/M02 A3012 RMK A01 T01111017  RH  041%=      5-min Rain = 0
KSW1 111418Z 03019G26KT 11/M02 A3012 RMK A01 T01101017  RH  041%=      5-min Rain = 0
KSW1 111419Z 03021G27KT 11/M02 A3012 RMK A01 T01101017  RH  041%=      5-min Rain = 0
KSW1 111420Z 03019KT 11/M02 A3012 RMK A01 T01101017  RH  041%=      5-min Rain = 0
KSW1 111421Z 03021KT 11/M02 A3013 RMK A01 T01101016  RH  041%=      5-min Rain = 0
KSW1 111422Z 03020KT 11/M02 A3012 RMK A01 T01101017  RH  041%=      5-min Rain = 0
KSW1 111423Z 03023G29KT 11/M02 A3013 RMK A01 T01101017  RH  041%=      5-min Rain = 0
KSW1 111424Z 03020G27KT 11/M02 A3013 RMK A01 T01101017  RH  041%=      5-min Rain = 0
KSW1 111425Z 03022G29KT 11/M02 A3013 RMK A01 T01091017  RH  041%=      5-min Rain = 0
KSW1 111426Z 03025G30KT 11/M02 A3013 RMK A01 T01091018  RH  041%=      5-min Rain = 0
KSW1 111427Z 03023G29KT 11/M02 A3013 RMK A01 T01091018  RH  041%=      5-min Rain = 0
KSW1 111428Z 03022G29KT 11/M02 A3014 RMK A01 T01091018  RH  041%=      5-min Rain = 0
KSW1 111429Z 03022G27KT 11/M02 A3014 RMK A01 T01081018  RH  041%=      5-min Rain = 0
KSW1 111430Z 03023G28KT 11/M02 A3014 RMK A01 T01081019  RH  041%=      5-min Rain = 0
KSW1 111431Z 03022KT 11/M02 A3014 RMK A01 T01081019  RH  041%=      5-min Rain = 0
KSW1 111432Z 03022G29KT 11/M02 A3014 RMK A01 T01081018  RH  041%=      5-min Rain = 0
KSW1 111433Z 03020G25KT 11/M02 A3014 RMK A01 T01081019  RH  041%=      5-min Rain = 0
KSW1 111434Z 03024G29KT 11/M02 A3015 RMK A01 T01081020  RH  041%=      5-min Rain = 0
KSW1 111435Z 03021G28KT 11/M02 A3015 RMK A01 T01071021  RH  041%=      5-min Rain = 0
KSW1 111436Z 04027G32KT 11/M02 A3015 RMK A01 T01071021  RH  041%=      5-min Rain = 0
KSW1 111437Z 03024G30KT 11/M02 A3015 RMK A01 T01071023  RH  040%=      5-min Rain = 0
KSW1 111438Z 04025KT 11/M02 A3015 RMK A01 T01071024  RH  040%=      5-min Rain = 0
KSW1 111439Z 03025G31KT 11/M02 A3015 RMK A01 T01071024  RH  040%=      5-min Rain = 0
KSW1 111440Z 03022G28KT 11/M02 A3015 RMK A01 T01071024  RH  040%=      5-min Rain = 0
KSW1 111441Z 03023G29KT 11/M02 A3016 RMK A01 T01071023  RH  040%=      5-min Rain = 0
KSW1 111442Z 03022KT 11/M02 A3016 RMK A01 T01071022  RH  040%=      5-min Rain = 0
KSW1 111443Z 04019KT 11/M02 A3016 RMK A01 T01071022  RH  040%=      5-min Rain = 0
KSW1 111444Z 03022KT 11/M02 A3016 RMK A01 T01081021  RH  040%=      5-min Rain = 0
KSW1 111445Z 03021KT 11/M02 A3016 RMK A01 T01081021  RH  040%=      5-min Rain = 0
KSW1 111446Z 03024G30KT 11/M02 A3016 RMK A01 T01081021  RH  040%=      5-min Rain = 0
KSW1 111447Z 03025KT 11/M02 A3016 RMK A01 T01081022  RH  040%=      5-min Rain = 0
KSW1 111448Z 03020G26KT 11/M02 A3016 RMK A01 T01081021  RH  040%=      5-min Rain = 0
KSW1 111449Z 03022G27KT 11/M02 A3017 RMK A01 T01081021  RH  041%=      5-min Rain = 0
KSW1 111450Z 04018G23KT 11/M02 A3017 RMK A01 T01081021  RH  040%=      5-min Rain = 0
KSW1 111451Z 03020G26KT 11/M02 A3017 RMK A01 T01091020  RH  041%=      5-min Rain = 0
KSW1 111452Z 03017G23KT 11/M02 A3017 RMK A01 T01091019  RH  041%=      5-min Rain = 0
KSW1 111453Z 04019G25KT 11/M02 A3017 RMK A01 T01101019  RH  041%=      5-min Rain = 0
KSW1 111454Z 03025KT 11/M02 A3017 RMK A01 T01101018  RH  041%=      5-min Rain = 0
KSW1 111455Z 03021KT 11/M02 A3017 RMK A01 T01101018  RH  041%=      5-min Rain = 0
KSW1 111456Z 03019KT 11/M02 A3017 RMK A01 T01091018  RH  041%=      5-min Rain = 0
KSW1 111457Z 03020KT 11/M02 A3017 RMK A01 T01091017  RH  041%=      5-min Rain = 0
KSW1 111458Z 04022KT 11/M02 A3017 RMK A01 T01101017  RH  041%=      5-min Rain = 0
KSW1 111459Z 04019G26KT 11/M02 A3017 RMK A01 T01101017  RH  041%=      5-min Rain = 0
KSW1 111500Z 03020G25KT 11/M02 A3017 RMK A01 T01101017  RH  041%=      5-min Rain = 0
KSW1 111501Z 03019G24KT 11/M02 A3017 RMK A01 T01111016  RH  041%=      5-min Rain = 0
KSW1 111502Z 03017KT 11/M02 A3017 RMK A01 T01121016  RH  041%=      5-min Rain = 0
KSW1 111503Z 04018G24KT 11/M02 A3017 RMK A01 T01131015  RH  041%=      5-min Rain = 0
KSW1 111504Z 04020KT 11/M02 A3018 RMK A01 T01131015  RH  041%=      5-min Rain = 0
KSW1 111505Z 04020KT 11/M02 A3018 RMK A01 T01131015  RH  041%=      5-min Rain = 0
KSW1 111506Z 04015KT 11/M01 A3018 RMK A01 T01141014  RH  041%=      5-min Rain = 0
KSW1 111507Z 04014G19KT 12/M01 A3018 RMK A01 T01161012  RH  041%=      5-min Rain = 0
KSW1 111508Z 04017G23KT 12/M01 A3018 RMK A01 T01191012  RH  040%=      5-min Rain = 0
KSW1 111509Z 04018KT 12/M01 A3018 RMK A01 T01191012  RH  040%=      5-min Rain = 0
KSW1 111510Z 04018KT 12/M01 A3018 RMK A01 T01181012  RH  040%=      5-min Rain = 0
KSW1 111511Z 03015G20KT 12/M01 A3018 RMK A01 T01181012  RH  040%=      5-min Rain = 0
KSW1 111512Z 03015KT 12/M01 A3018 RMK A01 T01191011  RH  041%=      5-min Rain = 0
KSW1 111513Z 02015KT 12/M01 A3018 RMK A01 T01201011  RH  040%=      5-min Rain = 0
KSW1 111514Z 02018G27KT 12/M01 A3018 RMK A01 T01191011  RH  041%=      5-min Rain = 0
KSW1 111515Z 02022KT 12/M01 A3018 RMK A01 T01191012  RH  040%=      5-min Rain = 0
KSW1 111516Z 02019G25KT 12/M01 A3018 RMK A01 T01171012  RH  041%=      5-min Rain = 0
KSW1 111517Z 02018G23KT 12/M01 A3018 RMK A01 T01171011  RH  041%=      5-min Rain = 0
KSW1 111518Z 02025KT 12/M01 A3018 RMK A01 T01191011  RH  041%=      5-min Rain = 0
KSW1 111519Z 02025KT 12/M01 A3018 RMK A01 T01181013  RH  040%=      5-min Rain = 0
KSW1 111520Z 02021KT 12/M01 A3018 RMK A01 T01161014  RH  040%=      5-min Rain = 0
KSW1 111521Z 03021G26KT 12/M01 A3018 RMK A01 T01161013  RH  041%=      5-min Rain = 0
KSW1 111522Z 02022KT 12/M01 A3018 RMK A01 T01161012  RH  041%=      5-min Rain = 0
KSW1 111523Z 02020G26KT 12/M01 A3018 RMK A01 T01171013  RH  041%=      5-min Rain = 0
KSW1 111524Z 03024G29KT 12/M01 A3018 RMK A01 T01181012  RH  040%=      5-min Rain = 0
KSW1 111525Z 03024G30KT 12/M01 A3018 RMK A01 T01171014  RH  040%=      5-min Rain = 0
KSW1 111526Z 03025G30KT 12/M02 A3018 RMK A01 T01161015  RH  040%=      5-min Rain = 0
KSW1 111527Z 03026KT 12/M02 A3018 RMK A01 T01151016  RH  040%=      5-min Rain = 0
KSW1 111528Z 03024G31KT 12/M02 A3018 RMK A01 T01151016  RH  040%=      5-min Rain = 0
KSW1 111529Z 03025G30KT 11/M02 A3019 RMK A01 T01141016  RH  040%=      5-min Rain = 0
KSW1 111530Z 03024KT 11/M02 A3018 RMK A01 T01141015  RH  041%=      5-min Rain = 0
KSW1 111531Z 03018G23KT 11/M02 A3018 RMK A01 T01141015  RH  041%=      5-min Rain = 0
KSW1 111532Z 03023KT 12/M01 A3019 RMK A01 T01151014  RH  040%=      5-min Rain = 0
KSW1 111533Z 03025KT 12/M02 A3019 RMK A01 T01151016  RH  040%=      5-min Rain = 0
KSW1 111534Z 03024KT 11/M02 A3019 RMK A01 T01141017  RH  040%=      5-min Rain = 0
KSW1 111535Z 03019KT 11/M02 A3019 RMK A01 T01141016  RH  040%=      5-min Rain = 0
KSW1 111536Z 03018G23KT 11/M02 A3019 RMK A01 T01141015  RH  041%=      5-min Rain = 0
KSW1 111537Z 03020KT 12/M01 A3019 RMK A01 T01161014  RH  040%=      5-min Rain = 0
KSW1 111538Z 03021G26KT 12/M02 A3019 RMK A01 T01161015  RH  040%=      5-min Rain = 0
KSW1 111539Z 02022G27KT 12/M02 A3019 RMK A01 T01161016  RH  040%=      5-min Rain = 0
KSW1 111540Z 02020G25KT 12/M02 A3018 RMK A01 T01151017  RH  040%=      5-min Rain = 0
KSW1 111541Z 02017G23KT 12/M01 A3019 RMK A01 T01161014  RH  040%=      5-min Rain = 0
KSW1 111542Z 02020KT 12/M01 A3019 RMK A01 T01181014  RH  040%=      5-min Rain = 0
KSW1 111543Z 03018KT 12/M02 A3019 RMK A01 T01191016  RH  039%=      5-min Rain = 0
KSW1 111544Z 03019G25KT 12/M01 A3019 RMK A01 T01191014  RH  040%=      5-min Rain = 0
KSW1 111545Z 03015G25KT 12/M01 A3019 RMK A01 T01191012  RH  040%=      5-min Rain = 0
KSW1 111546Z 02021G27KT 12/M01 A3019 RMK A01 T01191012  RH  040%=      5-min Rain = 0
KSW1 111547Z 01022G27KT 12/M02 A3019 RMK A01 T01191015  RH  039%=      5-min Rain = 0
KSW1 111548Z 02024KT 12/M02 A3019 RMK A01 T01181016  RH  039%=      5-min Rain = 0
KSW1 111549Z 01023KT 12/M02 A3019 RMK A01 T01161017  RH  040%=      5-min Rain = 0
KSW1 111550Z 01024KT 12/M02 A3019 RMK A01 T01151017  RH  040%=      5-min Rain = 0
KSW1 111551Z 01021G26KT 12/M02 A3019 RMK A01 T01151018  RH  039%=      5-min Rain = 0
KSW1 111552Z 01019G24KT 12/M02 A3019 RMK A01 T01161018  RH  039%=      5-min Rain = 0
KSW1 111553Z 02021KT 12/M02 A3019 RMK A01 T01171016  RH  040%=      5-min Rain = 0
KSW1 111554Z 01018G23KT 12/M02 A302 RMK A01 T01161016  RH  040%=      5-min Rain = 0
KSW1 111555Z 02017KT 12/M01 A302 RMK A01 T01161014  RH  040%=      5-min Rain = 0
KSW1 111556Z 02020G25KT 12/M01 A302 RMK A01 T01181014  RH  040%=      5-min Rain = 0
KSW1 111557Z 02018G26KT 12/M02 A302 RMK A01 T01181015  RH  039%=      5-min Rain = 0
KSW1 111558Z 02023G28KT 12/M02 A302 RMK A01 T01191016  RH  039%=      5-min Rain = 0
KSW1 111559Z 02015KT 12/M02 A302 RMK A01 T01181015  RH  040%=      5-min Rain = 0
KSW1 111600Z 01016G22KT 12/M01 A302 RMK A01 T01191013  RH  040%=      5-min Rain = 0
KSW1 111601Z 02017G23KT 12/M01 A302 RMK A01 T01201014  RH  040%=      5-min Rain = 0
KSW1 111602Z 02017KT 12/M01 A3021 RMK A01 T01201013  RH  040%=      5-min Rain = 0
KSW1 111603Z 01018G24KT 12/M02 A302 RMK A01 T01201015  RH  039%=      5-min Rain = 0
KSW1 111604Z 02020G25KT 12/M02 A3021 RMK A01 T01191017  RH  039%=      5-min Rain = 0
KSW1 111605Z 02020G25KT 12/M02 A3021 RMK A01 T01181017  RH  039%=      5-min Rain = 0
KSW1 111606Z 03021G26KT 12/M02 A3021 RMK A01 T01171017  RH  039%=      5-min Rain = 0
KSW1 111607Z 03020KT 12/M02 A3021 RMK A01 T01161016  RH  040%=      5-min Rain = 0
KSW1 111608Z 02019G24KT 12/M02 A3021 RMK A01 T01151016  RH  040%=      5-min Rain = 0
KSW1 111609Z 02021KT 12/M02 A3021 RMK A01 T01151017  RH  040%=      5-min Rain = 0
KSW1 111610Z 02022KT 12/M02 A3021 RMK A01 T01151017  RH  040%=      5-min Rain = 0
KSW1 111611Z 02019KT 12/M02 A3021 RMK A01 T01151017  RH  040%=      5-min Rain = 0
KSW1 111612Z 02023KT 12/M02 A3021 RMK A01 T01151017  RH  040%=      5-min Rain = 0
KSW1 111613Z 03020KT 11/M02 A3021 RMK A01 T01141019  RH  039%=      5-min Rain = 0
KSW1 111614Z 02018KT 12/M02 A3021 RMK A01 T01151018  RH  039%=      5-min Rain = 0
KSW1 111615Z 02016G21KT 12/M02 A3021 RMK A01 T01161017  RH  040%=      5-min Rain = 0
KSW1 111616Z 02020G25KT 12/M02 A3022 RMK A01 T01181017  RH  039%=      5-min Rain = 0
KSW1 111617Z 02022G27KT 12/M02 A3022 RMK A01 T01171018  RH  039%=      5-min Rain = 0
KSW1 111618Z 02020KT 12/M02 A3022 RMK A01 T01151018  RH  039%=      5-min Rain = 0
KSW1 111619Z 03017G23KT 12/M02 A3022 RMK A01 T01151017  RH  040%=      5-min Rain = 0
KSW1 111620Z 03019KT 12/M02 A3022 RMK A01 T01171016  RH  040%=      5-min Rain = 0
KSW1 111621Z 03020KT 12/M02 A3022 RMK A01 T01181015  RH  040%=      5-min Rain = 0
KSW1 111622Z 02017G22KT 12/M02 A3022 RMK A01 T01171016  RH  040%=      5-min Rain = 0
KSW1 111623Z 03020KT 12/M02 A3022 RMK A01 T01181016  RH  039%=      5-min Rain = 0
KSW1 111624Z 02021G27KT 12/M02 A3022 RMK A01 T01181018  RH  039%=      5-min Rain = 0
KSW1 111625Z 02020KT 12/M02 A3022 RMK A01 T01181018  RH  039%=      5-min Rain = 0
KSW1 111626Z 02021KT 12/M02 A3022 RMK A01 T01181018  RH  039%=      5-min Rain = 0
KSW1 111627Z 03020KT 12/M02 A3022 RMK A01 T01181017  RH  039%=      5-min Rain = 0
KSW1 111628Z 02020KT 12/M02 A3022 RMK A01 T01181017  RH  039%=      5-min Rain = 0
KSW1 111629Z 03019KT 12/M02 A3022 RMK A01 T01191016  RH  039%=      5-min Rain = 0
KSW1 111630Z 02019G25KT 12/M02 A3022 RMK A01 T01201016  RH  039%=      5-min Rain = 0
KSW1 111631Z 02021KT 12/M02 A3022 RMK A01 T01201016  RH  039%=      5-min Rain = 0
KSW1 111632Z 02017G22KT 12/M01 A3022 RMK A01 T01201014  RH  039%=      5-min Rain = 0
KSW1 111633Z 02015KT 12/M01 A3022 RMK A01 T01201013  RH  040%=      5-min Rain = 0
KSW1 111634Z 02016G21KT 12/M01 A3022 RMK A01 T01231012  RH  039%=      5-min Rain = 0
KSW1 111635Z 01018G24KT 12/M01 A3022 RMK A01 T01241014  RH  038%=      5-min Rain = 0
KSW1 111636Z 00022G29KT 12/M02 A3022 RMK A01 T01241017  RH  038%=      5-min Rain = 0
KSW1 111637Z 00020KT 12/M02 A3022 RMK A01 T01221018  RH  038%=      5-min Rain = 0
KSW1 111638Z 01018G25KT 12/M02 A3022 RMK A01 T01201018  RH  038%=      5-min Rain = 0
KSW1 111639Z 02018G23KT 12/M02 A3023 RMK A01 T01211017  RH  038%=      5-min Rain = 0
KSW1 111640Z 03020KT 12/M02 A3023 RMK A01 T01221017  RH  038%=      5-min Rain = 0
KSW1 111641Z 03018KT 12/M02 A3023 RMK A01 T01201019  RH  038%=      5-min Rain = 0
KSW1 111642Z 02020KT 12/M02 A3023 RMK A01 T01181018  RH  039%=      5-min Rain = 0
KSW1 111643Z 01020KT 12/M02 A3023 RMK A01 T01171018  RH  039%=      5-min Rain = 0
KSW1 111644Z 02016G21KT 12/M02 A3023 RMK A01 T01171017  RH  039%=      5-min Rain = 0
KSW1 111645Z 01016G21KT 12/M02 A3023 RMK A01 T01191016  RH  039%=      5-min Rain = 0
KSW1 111646Z 02018KT 12/M02 A3023 RMK A01 T01211016  RH  039%=      5-min Rain = 0
KSW1 111647Z 01018G23KT 12/M02 A3023 RMK A01 T01221016  RH  038%=      5-min Rain = 0
KSW1 111648Z 01018G24KT 12/M02 A3023 RMK A01 T01211017  RH  038%=      5-min Rain = 0
KSW1 111649Z 02015KT 12/M02 A3023 RMK A01 T01201017  RH  039%=      5-min Rain = 0
KSW1 111650Z 03013G23KT 12/M02 A3023 RMK A01 T01201015  RH  039%=      5-min Rain = 0
KSW1 111651Z 02018KT 12/M02 A3023 RMK A01 T01211017  RH  038%=      5-min Rain = 0
KSW1 111652Z 02020KT 12/M02 A3023 RMK A01 T01201018  RH  038%=      5-min Rain = 0
KSW1 111653Z 03020KT 12/M02 A3024 RMK A01 T01181019  RH  038%=      5-min Rain = 0
KSW1 111654Z 03020KT 12/M02 A3024 RMK A01 T01171019  RH  039%=      5-min Rain = 0
KSW1 111655Z 02021G26KT 12/M02 A3024 RMK A01 T01161018  RH  039%=      5-min Rain = 0
KSW1 111656Z 01019G24KT 12/M02 A3024 RMK A01 T01151019  RH  039%=      5-min Rain = 0
KSW1 111657Z 02019KT 11/M02 A3024 RMK A01 T01141018  RH  040%=      5-min Rain = 0
KSW1 111658Z 02019KT 11/M02 A3024 RMK A01 T01131018  RH  040%=      5-min Rain = 0
KSW1 111659Z 03017KT 11/M02 A3024 RMK A01 T01131018  RH  040%=      5-min Rain = 0
KSW1 111700Z 03016KT 11/M02 A3024 RMK A01 T01141017  RH  040%=      5-min Rain = 0
KSW1 111701Z 03017KT 12/M02 A3024 RMK A01 T01151017  RH  040%=      5-min Rain = 0
KSW1 111702Z 03018KT 12/M02 A3024 RMK A01 T01151017  RH  040%=      5-min Rain = 0
KSW1 111703Z 03015G20KT 11/M02 A3024 RMK A01 T01141018  RH  040%=      5-min Rain = 0
KSW1 111704Z 03013KT 12/M02 A3024 RMK A01 T01151017  RH  040%=      5-min Rain = 0
KSW1 111705Z 02014KT 12/M02 A3024 RMK A01 T01151016  RH  040%=      5-min Rain = 0
KSW1 111706Z 02017KT 12/M02 A3024 RMK A01 T01151017  RH  040%=      5-min Rain = 0
KSW1 111707Z 00013KT 11/M02 A3024 RMK A01 T01141017  RH  040%=      5-min Rain = 0
KSW1 111708Z 02016G21KT 11/M02 A3024 RMK A01 T01141017  RH  040%=      5-min Rain = 0
KSW1 111709Z 02019KT 11/M02 A3024 RMK A01 T01141017  RH  040%=      5-min Rain = 0
KSW1 111710Z 02017KT 11/M02 A3024 RMK A01 T01121018  RH  040%=      5-min Rain = 0
KSW1 111711Z 01019KT 11/M02 A3024 RMK A01 T01111018  RH  041%=      5-min Rain = 0
KSW1 111712Z 01018KT 11/M02 A3024 RMK A01 T01091019  RH  041%=      5-min Rain = 0
KSW1 111713Z 01015G21KT 11/M02 A3024 RMK A01 T01091018  RH  041%=      5-min Rain = 0
KSW1 111714Z 02014KT 11/M02 A3024 RMK A01 T01101016  RH  041%=      5-min Rain = 0
KSW1 111715Z 00015G22KT 11/M02 A3024 RMK A01 T01111016  RH  041%=      5-min Rain = 0
KSW1 111716Z 01017G23KT 11/M02 A3025 RMK A01 T01111017  RH  041%=      5-min Rain = 0
KSW1 111717Z 01018G24KT 11/M02 A3024 RMK A01 T01101017  RH  041%=      5-min Rain = 0
KSW1 111718Z 01018KT 11/M02 A3025 RMK A01 T01101017  RH  041%=      5-min Rain = 0
KSW1 111719Z 01019KT 11/M02 A3025 RMK A01 T01101017  RH  041%=      5-min Rain = 0
KSW1 111720Z 02017KT 11/M02 A3025 RMK A01 T01091017  RH  041%=      5-min Rain = 0
KSW1 111721Z 02014G19KT 11/M02 A3024 RMK A01 T01091016  RH  041%=      5-min Rain = 0
KSW1 111722Z 01014KT 11/M02 A3024 RMK A01 T01091016  RH  042%=      5-min Rain = 0
KSW1 111723Z 01015KT 11/M02 A3024 RMK A01 T01111016  RH  041%=      5-min Rain = 0
KSW1 111724Z 01015G20KT 11/M02 A3024 RMK A01 T01121016  RH  041%=      5-min Rain = 0
KSW1 111725Z 01018KT 11/M02 A3024 RMK A01 T01131017  RH  040%=      5-min Rain = 0
KSW1 111726Z 01015KT 11/M02 A3024 RMK A01 T01131018  RH  040%=      5-min Rain = 0
KSW1 111727Z 01016KT 11/M02 A3024 RMK A01 T01131017  RH  040%=      5-min Rain = 0
KSW1 111728Z 03016KT 11/M02 A3024 RMK A01 T01131017  RH  040%=      5-min Rain = 0
KSW1 111729Z 03015KT 11/M02 A3025 RMK A01 T01141017  RH  040%=      5-min Rain = 0
KSW1 111730Z 03015KT 12/M02 A3025 RMK A01 T01151021  RH  039%=      5-min Rain = 0
KSW1 111731Z 02013KT 12/M02 A3025 RMK A01 T01151021  RH  039%=      5-min Rain = 0
KSW1 111732Z 03017KT 12/M02 A3025 RMK A01 T01151021  RH  039%=      5-min Rain = 0
KSW1 111733Z 03016KT 11/M02 A3025 RMK A01 T01141023  RH  038%=      5-min Rain = 0
KSW1 111734Z 02014KT 11/M02 A3025 RMK A01 T01141022  RH  039%=      5-min Rain = 0
KSW1 111735Z 02017KT 12/M02 A3025 RMK A01 T01151022  RH  039%=      5-min Rain = 0
KSW1 111736Z 02018KT 11/M02 A3025 RMK A01 T01141023  RH  038%=      5-min Rain = 0
KSW1 111737Z 02016KT 11/M02 A3025 RMK A01 T01131023  RH  038%=      5-min Rain = 0
KSW1 111738Z 02013G18KT 11/M02 A3025 RMK A01 T01121023  RH  039%=      5-min Rain = 0
KSW1 111739Z 02015KT 11/M02 A3025 RMK A01 T01121022  RH  039%=      5-min Rain = 0
KSW1 111740Z 01014KT 11/M02 A3025 RMK A01 T01131022  RH  039%=      5-min Rain = 0
KSW1 111741Z 02017KT 11/M02 A3025 RMK A01 T01131022  RH  039%=      5-min Rain = 0
KSW1 111742Z 02014KT 11/M02 A3025 RMK A01 T01131021  RH  039%=      5-min Rain = 0
KSW1 111743Z 03015KT 11/M02 A3025 RMK A01 T01131021  RH  039%=      5-min Rain = 0
KSW1 111744Z 03014KT 11/M02 A3025 RMK A01 T01141021  RH  039%=      5-min Rain = 0
KSW1 111745Z 02017KT 11/M02 A3025 RMK A01 T01141021  RH  039%=      5-min Rain = 0
KSW1 111746Z 02017KT 12/M02 A3025 RMK A01 T01151022  RH  038%=      5-min Rain = 0
KSW1 111747Z 03017KT 12/M02 A3025 RMK A01 T01151022  RH  038%=      5-min Rain = 0
KSW1 111748Z 02020KT 11/M02 A3025 RMK A01 T01141024  RH  038%=      5-min Rain = 0
KSW1 111749Z 01016G22KT 11/M03 A3025 RMK A01 T01131027  RH  037%=      5-min Rain = 0
KSW1 111750Z 02016KT 11/M03 A3025 RMK A01 T01131026  RH  038%=      5-min Rain = 0
KSW1 111751Z 01014KT 11/M03 A3025 RMK A01 T01141027  RH  037%=      5-min Rain = 0
KSW1 111752Z 02015G21KT 11/M03 A3025 RMK A01 T01141026  RH  038%=      5-min Rain = 0
KSW1 111753Z 01014KT 11/M03 A3024 RMK A01 T01141026  RH  038%=      5-min Rain = 0
KSW1 111754Z 01017KT 11/M02 A3024 RMK A01 T01141024  RH  038%=      5-min Rain = 0
KSW1 111755Z 02018G23KT 11/M02 A3024 RMK A01 T01141024  RH  038%=      5-min Rain = 0
KSW1 111756Z 02021KT 11/M03 A3024 RMK A01 T01131025  RH  038%=      5-min Rain = 0
KSW1 111757Z 02016KT 11/M03 A3024 RMK A01 T01111025  RH  039%=      5-min Rain = 0
KSW1 111758Z 02016G21KT 11/M03 A3024 RMK A01 T01111027  RH  038%=      5-min Rain = 0
KSW1 111759Z 02016KT 11/M03 A3024 RMK A01 T01121028  RH  037%=      5-min Rain = 0
KSW1 111800Z 03015KT 11/M03 A3024 RMK A01 T01131029  RH  037%=      5-min Rain = 0
KSW1 111801Z 02018KT 11/M03 A3024 RMK A01 T01141027  RH  037%=      5-min Rain = 0
KSW1 111802Z 03014KT 11/M03 A3024 RMK A01 T01141026  RH  037%=      5-min Rain = 0
KSW1 111803Z 03018G24KT 12/M03 A3024 RMK A01 T01151026  RH  037%=      5-min Rain = 0
KSW1 111804Z 03017KT 11/M03 A3024 RMK A01 T01141028  RH  037%=      5-min Rain = 0
KSW1 111805Z 03015KT 11/M03 A3024 RMK A01 T01141027  RH  037%=      5-min Rain = 0
KSW1 111806Z 02018KT 12/M03 A3024 RMK A01 T01161025  RH  037%=      5-min Rain = 0
KSW1 111807Z 02013KT 12/M03 A3024 RMK A01 T01171026  RH  037%=      5-min Rain = 0
KSW1 111808Z 02011G18KT 12/M02 A3024 RMK A01 T01191024  RH  037%=      5-min Rain = 0
KSW1 111809Z 02019KT 12/M02 A3024 RMK A01 T01211023  RH  037%=      5-min Rain = 0
KSW1 111810Z 02021KT 12/M03 A3024 RMK A01 T01221025  RH  036%=      5-min Rain = 0
KSW1 111811Z 02020G27KT 12/M03 A3024 RMK A01 T01181029  RH  036%=      5-min Rain = 0
KSW1 111812Z 02017G23KT 12/M03 A3024 RMK A01 T01171029  RH  036%=      5-min Rain = 0
KSW1 111813Z 02018KT 12/M03 A3024 RMK A01 T01171029  RH  036%=      5-min Rain = 0
KSW1 111814Z 02015KT 12/M03 A3024 RMK A01 T01171029  RH  036%=      5-min Rain = 0
KSW1 111815Z 02017G22KT 12/M03 A3024 RMK A01 T01181028  RH  036%=      5-min Rain = 0
KSW1 111816Z 01018KT 12/M03 A3024 RMK A01 T01191030  RH  035%=      5-min Rain = 0
KSW1 111817Z 01015KT 12/M03 A3024 RMK A01 T01171031  RH  035%=      5-min Rain = 0
KSW1 111818Z 01016G22KT 12/M03 A3024 RMK A01 T01161031  RH  036%=      5-min Rain = 0
KSW1 111819Z 01018G23KT 12/M03 A3024 RMK A01 T01171030  RH  036%=      5-min Rain = 0
KSW1 111820Z 01018KT 12/M03 A3024 RMK A01 T01171030  RH  036%=      5-min Rain = 0
KSW1 111821Z 01017G22KT 12/M03 A3024 RMK A01 T01171031  RH  035%=      5-min Rain = 0
KSW1 111822Z 01019KT 12/M03 A3024 RMK A01 T01171032  RH  035%=      5-min Rain = 0
KSW1 111823Z 01017G22KT 12/M03 A3024 RMK A01 T01151034  RH  035%=      5-min Rain = 0
KSW1 111824Z 01019KT 12/M03 A3024 RMK A01 T01151032  RH  036%=      5-min Rain = 0
KSW1 111825Z 02018KT 11/M03 A3024 RMK A01 T01141032  RH  036%=      5-min Rain = 0
KSW1 111826Z 02015KT 12/M03 A3024 RMK A01 T01151031  RH  036%=      5-min Rain = 0
KSW1 111827Z 02016G22KT 12/M03 A3025 RMK A01 T01161029  RH  036%=      5-min Rain = 0
KSW1 111828Z 02019KT 12/M03 A3025 RMK A01 T01171028  RH  036%=      5-min Rain = 0
KSW1 111829Z 02013G20KT 12/M03 A3025 RMK A01 T01161029  RH  036%=      5-min Rain = 0
KSW1 111830Z 02016KT 12/M03 A3025 RMK A01 T01161028  RH  036%=      5-min Rain = 0
KSW1 111831Z 00015KT 12/M03 A3025 RMK A01 T01171029  RH  036%=      5-min Rain = 0
KSW1 111832Z 00018G24KT 12/M03 A3025 RMK A01 T01181028  RH  036%=      5-min Rain = 0
KSW1 111833Z 01018KT 12/M03 A3025 RMK A01 T01171029  RH  036%=      5-min Rain = 0
KSW1 111834Z 02016KT 12/M03 A3025 RMK A01 T01161029  RH  036%=      5-min Rain = 0
KSW1 111835Z 01020KT 12/M03 A3025 RMK A01 T01161029  RH  036%=      5-min Rain = 0
KSW1 111836Z 01017KT 12/M03 A3025 RMK A01 T01161028  RH  036%=      5-min Rain = 0
KSW1 111837Z 01015KT 12/M03 A3025 RMK A01 T01161027  RH  037%=      5-min Rain = 0
KSW1 111838Z 03018KT 12/M03 A3025 RMK A01 T01181028  RH  036%=      5-min Rain = 0
KSW1 111839Z 02017G23KT 12/M03 A3025 RMK A01 T01191031  RH  035%=      5-min Rain = 0
KSW1 111840Z 02014KT 12/M03 A3025 RMK A01 T01201030  RH  035%=      5-min Rain = 0
KSW1 111841Z 02014G20KT 12/M03 A3025 RMK A01 T01211028  RH  035%=      5-min Rain = 0
KSW1 111842Z 02018KT 12/M03 A3025 RMK A01 T01221029  RH  035%=      5-min Rain = 0
KSW1 111843Z 02020KT 12/M03 A3025 RMK A01 T01211031  RH  035%=      5-min Rain = 0
KSW1 111844Z 02017KT 12/M03 A3025 RMK A01 T01201031  RH  035%=      5-min Rain = 0
KSW1 111845Z 02016G22KT 12/M03 A3025 RMK A01 T01211029  RH  035%=      5-min Rain = 0
KSW1 111846Z 01018KT 12/M03 A3026 RMK A01 T01231028  RH  035%=      5-min Rain = 0
KSW1 111847Z 02018KT 12/M03 A3026 RMK A01 T01211029  RH  035%=      5-min Rain = 0
KSW1 111848Z 03018KT 12/M03 A3026 RMK A01 T01201029  RH  035%=      5-min Rain = 0
KSW1 111849Z 02020KT 12/M03 A3025 RMK A01 T01201029  RH  035%=      5-min Rain = 0
KSW1 111850Z 02021KT 12/M03 A3026 RMK A01 T01211031  RH  034%=      5-min Rain = 0
KSW1 111851Z 02016KT 12/M03 A3026 RMK A01 T01201032  RH  034%=      5-min Rain = 0
KSW1 111852Z 02016KT 12/M03 A3025 RMK A01 T01191032  RH  035%=      5-min Rain = 0
KSW1 111853Z 02017KT 12/M03 A3026 RMK A01 T01211031  RH  034%=      5-min Rain = 0
KSW1 111854Z 02017KT 12/M03 A3025 RMK A01 T01231032  RH  034%=      5-min Rain = 0
KSW1 111855Z 02017KT 12/M03 A3025 RMK A01 T01241034  RH  033%=      5-min Rain = 0
KSW1 111856Z 01012KT 12/M04 A3025 RMK A01 T01241036  RH  033%=      5-min Rain = 0
KSW1 111857Z 01016G21KT 13/M04 A3025 RMK A01 T01251035  RH  033%=      5-min Rain = 0
KSW1 111858Z 01016KT 13/M04 A3025 RMK A01 T01251036  RH  032%=      5-min Rain = 0
KSW1 111859Z 01019KT 12/M04 A3025 RMK A01 T01231037  RH  033%=      5-min Rain = 0
KSW1 111900Z 01015KT 12/M04 A3025 RMK A01 T01231037  RH  033%=      5-min Rain = 0
KSW1 111901Z 02013G18KT 12/M04 A3025 RMK A01 T01221038  RH  033%=      5-min Rain = 0
KSW1 111902Z 36015KT 12/M04 A3025 RMK A01 T01211036  RH  033%=      5-min Rain = 0
KSW1 111903Z 36015KT 12/M04 A3025 RMK A01 T01221035  RH  033%=      5-min Rain = 0
KSW1 111904Z 00019KT 12/M04 A3025 RMK A01 T01211038  RH  033%=      5-min Rain = 0
KSW1 111905Z 01015G20KT 12/M04 A3025 RMK A01 T01191038  RH  033%=      5-min Rain = 0
KSW1 111906Z 01019KT 12/M04 A3025 RMK A01 T01201036  RH  034%=      5-min Rain = 0
KSW1 111907Z 01016KT 12/M04 A3025 RMK A01 T01201039  RH  033%=      5-min Rain = 0
KSW1 111908Z 36020KT 12/M04 A3025 RMK A01 T01191040  RH  033%=      5-min Rain = 0
KSW1 111909Z 00019KT 12/M04 A3025 RMK A01 T01211040  RH  032%=      5-min Rain = 0
KSW1 111910Z 00017KT 12/M04 A3025 RMK A01 T01201043  RH  032%=      5-min Rain = 0
KSW1 111911Z 00018KT 12/M04 A3025 RMK A01 T01191043  RH  032%=      5-min Rain = 0
KSW1 111912Z 00015KT 12/M04 A3025 RMK A01 T01201040  RH  032%=      5-min Rain = 0
KSW1 111913Z 00018KT 12/M04 A3025 RMK A01 T01221040  RH  032%=      5-min Rain = 0
KSW1 111914Z 00013KT 12/M04 A3025 RMK A01 T01201041  RH  032%=      5-min Rain = 0
KSW1 111915Z 02017KT 12/M04 A3025 RMK A01 T01191042  RH  032%=      5-min Rain = 0
KSW1 111916Z 02017KT 12/M05 A3025 RMK A01 T01201045  RH  031%=      5-min Rain = 0
KSW1 111917Z 02017KT 12/M05 A3025 RMK A01 T01191046  RH  031%=      5-min Rain = 0
KSW1 111918Z 03018KT 12/M04 A3025 RMK A01 T01191044  RH  032%=      5-min Rain = 0
KSW1 111919Z 02017KT 12/M05 A3025 RMK A01 T01191046  RH  031%=      5-min Rain = 0
KSW1 111920Z 03016KT 12/M05 A3025 RMK A01 T01201047  RH  031%=      5-min Rain = 0
KSW1 111921Z 02017KT 12/M05 A3025 RMK A01 T01191049  RH  031%=      5-min Rain = 0
KSW1 111922Z 02013KT 12/M05 A3025 RMK A01 T01191046  RH  031%=      5-min Rain = 0
KSW1 111923Z 01014KT 12/M04 A3025 RMK A01 T01221041  RH  032%=      5-min Rain = 0
KSW1 111924Z 02016KT 12/M04 A3025 RMK A01 T01231041  RH  032%=      5-min Rain = 0
KSW1 111925Z 01013KT 12/M04 A3025 RMK A01 T01201040  RH  032%=      5-min Rain = 0
KSW1 111926Z 00014KT 12/M04 A3025 RMK A01 T01221039  RH  032%=      5-min Rain = 0
KSW1 111927Z 01017KT 12/M04 A3025 RMK A01 T01231042  RH  031%=      5-min Rain = 0
KSW1 111928Z 01015G20KT 12/M05 A3025 RMK A01 T01221045  RH  031%=      5-min Rain = 0
KSW1 111929Z 01013G18KT 12/M05 A3025 RMK A01 T01231045  RH  031%=      5-min Rain = 0
KSW1 111930Z 02014KT 12/M05 A3025 RMK A01 T01241045  RH  030%=      5-min Rain = 0
KSW1 111931Z 02018KT 13/M05 A3025 RMK A01 T01261046  RH  030%=      5-min Rain = 0
KSW1 111932Z 02015KT 12/M05 A3024 RMK A01 T01241049  RH  030%=      5-min Rain = 0
KSW1 111933Z 02016KT 12/M05 A3024 RMK A01 T01241048  RH  030%=      5-min Rain = 0
KSW1 111934Z 02014KT 13/M05 A3024 RMK A01 T01251049  RH  029%=      5-min Rain = 0
KSW1 111935Z 02015KT 13/M05 A3024 RMK A01 T01261048  RH  029%=      5-min Rain = 0
KSW1 111936Z 01015KT 13/M05 A3024 RMK A01 T01281046  RH  029%=      5-min Rain = 0
KSW1 111937Z 03012G18KT 13/M04 A3024 RMK A01 T01311044  RH  029%=      5-min Rain = 0
KSW1 111938Z 03019G24KT 13/M04 A3024 RMK A01 T01341044  RH  029%=      5-min Rain = 0
KSW1 111939Z 01017KT 13/M05 A3024 RMK A01 T01341046  RH  028%=      5-min Rain = 0
KSW1 111940Z 02016KT 13/M05 A3024 RMK A01 T01331047  RH  028%=      5-min Rain = 0
KSW1 111941Z 00014G21KT 13/M05 A3024 RMK A01 T01311048  RH  028%=      5-min Rain = 0
KSW1 111942Z 01013KT 13/M05 A3024 RMK A01 T01291048  RH  029%=      5-min Rain = 0
KSW1 111943Z 01015G21KT 13/M05 A3024 RMK A01 T01281048  RH  029%=      5-min Rain = 0
KSW1 111944Z 01019KT 13/M05 A3024 RMK A01 T01281050  RH  029%=      5-min Rain = 0
KSW1 111945Z 00017KT 12/M05 A3024 RMK A01 T01231054  RH  028%=      5-min Rain = 0
KSW1 111946Z 35017KT 12/M05 A3024 RMK A01 T01221053  RH  029%=      5-min Rain = 0
KSW1 111947Z 36016G21KT 12/M05 A3023 RMK A01 T01211051  RH  030%=      5-min Rain = 0
KSW1 111948Z 00017KT 12/M05 A3024 RMK A01 T01211050  RH  030%=      5-min Rain = 0
KSW1 111949Z 00015KT 12/M05 A3024 RMK A01 T01201048  RH  031%=      5-min Rain = 0
KSW1 111950Z 00016G22KT 12/M05 A3024 RMK A01 T01201047  RH  031%=      5-min Rain = 0
KSW1 111951Z 01016KT 12/M05 A3024 RMK A01 T01201047  RH  031%=      5-min Rain = 0
KSW1 111952Z 00013KT 12/M05 A3024 RMK A01 T01211048  RH  030%=      5-min Rain = 0
KSW1 111953Z 01016KT 12/M05 A3024 RMK A01 T01221047  RH  030%=      5-min Rain = 0
KSW1 111954Z 01013KT 12/M05 A3024 RMK A01 T01241047  RH  030%=      5-min Rain = 0
KSW1 111955Z 36017KT 13/M05 A3023 RMK A01 T01271050  RH  029%=      5-min Rain = 0
KSW1 111956Z 36017KT 13/M06 A3024 RMK A01 T01271056  RH  027%=      5-min Rain = 0
KSW1 111957Z 01015KT 13/M06 A3024 RMK A01 T01261055  RH  028%=      5-min Rain = 0
KSW1 111958Z 00017G23KT 13/M06 A3023 RMK A01 T01251057  RH  028%=      5-min Rain = 0
KSW1 111959Z 01015KT 13/M06 A3024 RMK A01 T01261060  RH  027%=      5-min Rain = 0
KSW1 112000Z 01016KT 13/M06 A3024 RMK A01 T01271056  RH  027%=      5-min Rain = 0
KSW1 112001Z 02013KT 13/M06 A3024 RMK A01 T01281057  RH  027%=      5-min Rain = 0
KSW1 112002Z 02013KT 13/M06 A3024 RMK A01 T01281059  RH  027%=      5-min Rain = 0
KSW1 112003Z 03014KT 13/M06 A3024 RMK A01 T01291061  RH  026%=      5-min Rain = 0
KSW1 112004Z 01017KT 13/M06 A3024 RMK A01 T01281062  RH  026%=      5-min Rain = 0
KSW1 112005Z 36017KT 13/M07 A3024 RMK A01 T01261066  RH  026%=      5-min Rain = 0
KSW1 112006Z 00016KT 12/M07 A3024 RMK A01 T01241069  RH  025%=      5-min Rain = 0
KSW1 112007Z 01015G20KT 12/M07 A3024 RMK A01 T01231068  RH  026%=      5-min Rain = 0
KSW1 112008Z 01013G18KT 12/M07 A3024 RMK A01 T01241069  RH  025%=      5-min Rain = 0
KSW1 112009Z 01017KT 13/M07 A3023 RMK A01 T01261070  RH  025%=      5-min Rain = 0
KSW1 112010Z 01017G22KT 13/M07 A3023 RMK A01 T01251073  RH  024%=      5-min Rain = 0
KSW1 112011Z 00014G19KT 13/M07 A3023 RMK A01 T01251073  RH  025%=      5-min Rain = 0
KSW1 112012Z 01017KT 13/M08 A3023 RMK A01 T01251075  RH  024%=      5-min Rain = 0
KSW1 112013Z 01015G20KT 12/M08 A3023 RMK A01 T01231077  RH  024%=      5-min Rain = 0
KSW1 112014Z 02014KT 12/M08 A3024 RMK A01 T01241075  RH  024%=      5-min Rain = 0
KSW1 112015Z 03015KT 13/M08 A3024 RMK A01 T01261078  RH  023%=      5-min Rain = 0
KSW1 112016Z 02014KT 13/M08 A3024 RMK A01 T01261079  RH  023%=      5-min Rain = 0
KSW1 112017Z 01016KT 13/M08 A3024 RMK A01 T01261081  RH  023%=      5-min Rain = 0
KSW1 112018Z 01017G22KT 12/M08 A3024 RMK A01 T01241082  RH  023%=      5-min Rain = 0
KSW1 112019Z 01015KT 12/M08 A3024 RMK A01 T01231080  RH  023%=      5-min Rain = 0
KSW1 112020Z 03014G23KT 12/M08 A3024 RMK A01 T01231078  RH  024%=      5-min Rain = 0
KSW1 112021Z 03019G25KT 13/M08 A3024 RMK A01 T01261083  RH  022%=      5-min Rain = 0
KSW1 112022Z 02017KT 13/M09 A3024 RMK A01 T01261087  RH  022%=      5-min Rain = 0
KSW1 112023Z 02018KT 13/M09 A3024 RMK A01 T01261085  RH  022%=      5-min Rain = 0
KSW1 112024Z 02017KT 13/M08 A3024 RMK A01 T01281084  RH  022%=      5-min Rain = 0
KSW1 112025Z 02015KT 13/M08 A3024 RMK A01 T01291084  RH  022%=      5-min Rain = 0
KSW1 112026Z 02015KT 13/M08 A3024 RMK A01 T01281083  RH  022%=      5-min Rain = 0
KSW1 112027Z 03015KT 13/M08 A3024 RMK A01 T01281083  RH  022%=      5-min Rain = 0
KSW1 112028Z 01013KT 13/M08 A3024 RMK A01 T01291081  RH  022%=      5-min Rain = 0
KSW1 112029Z 36015KT 13/M08 A3024 RMK A01 T01321077  RH  023%=      5-min Rain = 0
KSW1 112030Z 01015KT 13/M08 A3024 RMK A01 T01311076  RH  023%=      5-min Rain = 0
KSW1 112031Z 01011KT 13/M07 A3024 RMK A01 T01321072  RH  023%=      5-min Rain = 0
KSW1 112032Z 03015KT 14/M07 A3024 RMK A01 T01361068  RH  024%=      5-min Rain = 0
KSW1 112033Z 01014G19KT 14/M07 A3024 RMK A01 T01361071  RH  023%=      5-min Rain = 0
KSW1 112034Z 36015G23KT 13/M07 A3024 RMK A01 T01341071  RH  023%=      5-min Rain = 0
KSW1 112035Z 01019G24KT 13/M07 A3024 RMK A01 T01341072  RH  023%=      5-min Rain = 0
KSW1 112036Z 01016KT 13/M07 A3024 RMK A01 T01321074  RH  023%=      5-min Rain = 0
KSW1 112037Z 01012KT 13/M07 A3024 RMK A01 T01301074  RH  024%=      5-min Rain = 0
KSW1 112038Z 01014KT 13/M07 A3024 RMK A01 T01301072  RH  024%=      5-min Rain = 0
KSW1 112039Z 00013G18KT 13/M07 A3024 RMK A01 T01301067  RH  025%=      5-min Rain = 0
KSW1 112040Z 01014KT 13/M07 A3024 RMK A01 T01321066  RH  025%=      5-min Rain = 0
KSW1 112041Z 01016KT 13/M07 A3024 RMK A01 T01311069  RH  024%=      5-min Rain = 0
KSW1 112042Z 01016KT 13/M07 A3024 RMK A01 T01271072  RH  024%=      5-min Rain = 0
KSW1 112043Z 02013KT 13/M07 A3024 RMK A01 T01261071  RH  025%=      5-min Rain = 0
KSW1 112044Z 02011KT 13/M07 A3023 RMK A01 T01271071  RH  025%=      5-min Rain = 0
KSW1 112045Z 02013KT 13/M07 A3023 RMK A01 T01281071  RH  024%=      5-min Rain = 0
KSW1 112046Z 02017KT 13/M08 A3023 RMK A01 T01281075  RH  024%=      5-min Rain = 0
KSW1 112047Z 02015KT 13/M08 A3023 RMK A01 T01301077  RH  023%=      5-min Rain = 0
KSW1 112048Z 02014KT 13/M08 A3023 RMK A01 T01311078  RH  023%=      5-min Rain = 0
KSW1 112049Z 01016KT 13/M08 A3023 RMK A01 T01301079  RH  022%=      5-min Rain = 0
KSW1 112050Z 01017KT 13/M08 A3023 RMK A01 T01291084  RH  022%=      5-min Rain = 0
KSW1 112051Z 01018G23KT 13/M08 A3023 RMK A01 T01291084  RH  022%=      5-min Rain = 0
KSW1 112052Z 02017G22KT 13/M09 A3024 RMK A01 T01281085  RH  022%=      5-min Rain = 0
KSW1 112053Z 02015KT 13/M08 A3024 RMK A01 T01291083  RH  022%=      5-min Rain = 0
KSW1 112054Z 00016G21KT 13/M08 A3024 RMK A01 T01311081  RH  022%=      5-min Rain = 0
KSW1 112055Z 01016KT 13/M08 A3024 RMK A01 T01321079  RH  022%=      5-min Rain = 0
KSW1 112056Z 01014G20KT 13/M08 A3024 RMK A01 T01321077  RH  023%=      5-min Rain = 0
KSW1 112057Z 01015G22KT 13/M08 A3024 RMK A01 T01311078  RH  023%=      5-min Rain = 0
KSW1 112058Z 01017G22KT 13/M08 A3024 RMK A01 T01311080  RH  022%=      5-min Rain = 0
KSW1 112059Z 01017KT 13/M08 A3023 RMK A01 T01301082  RH  022%=      5-min Rain = 0
KSW1 112100Z 02019KT 13/M08 A3024 RMK A01 T01311080  RH  022%=      5-min Rain = 0
KSW1 112101Z 02018G23KT 13/M08 A3023 RMK A01 T01331079  RH  022%=      5-min Rain = 0
KSW1 112102Z 02016KT 13/M08 A3023 RMK A01 T01341078  RH  022%=      5-min Rain = 0
KSW1 112103Z 01015KT 14/M08 A3023 RMK A01 T01361079  RH  022%=      5-min Rain = 0
KSW1 112104Z 02013KT 14/M08 A3023 RMK A01 T01351077  RH  022%=      5-min Rain = 0
KSW1 112105Z 01014G20KT 13/M08 A3023 RMK A01 T01341077  RH  022%=      5-min Rain = 0
KSW1 112106Z 01019KT 14/M08 A3023 RMK A01 T01351079  RH  022%=      5-min Rain = 0
KSW1 112107Z 01019KT 14/M09 A3023 RMK A01 T01361085  RH  021%=      5-min Rain = 0
KSW1 112108Z 01017G22KT 14/M09 A3023 RMK A01 T01361087  RH  020%=      5-min Rain = 0
KSW1 112109Z 02017G23KT 14/M08 A3023 RMK A01 T01361084  RH  021%=      5-min Rain = 0
KSW1 112110Z 36017KT 14/M08 A3023 RMK A01 T01421080  RH  021%=      5-min Rain = 0
KSW1 112111Z 01019KT 15/M08 A3023 RMK A01 T01451080  RH  020%=      5-min Rain = 0
KSW1 112112Z 36014G19KT 14/M08 A3023 RMK A01 T01441082  RH  020%=      5-min Rain = 0
KSW1 112113Z 36013KT 15/M08 A3023 RMK A01 T01471079  RH  020%=      5-min Rain = 0
KSW1 112114Z 01015G22KT 15/M08 A3023 RMK A01 T01501080  RH  020%=      5-min Rain = 0
KSW1 112115Z 01020KT 15/M08 A3023 RMK A01 T01491083  RH  019%=      5-min Rain = 0
KSW1 112116Z 02019KT 14/M09 A3023 RMK A01 T01441087  RH  019%=      5-min Rain = 0
KSW1 112117Z 02019KT 14/M09 A3023 RMK A01 T01421088  RH  019%=      5-min Rain = 0
KSW1 112118Z 01018KT 14/M09 A3023 RMK A01 T01441091  RH  019%=      5-min Rain = 0
KSW1 112119Z 02017G22KT 15/M09 A3023 RMK A01 T01451089  RH  019%=      5-min Rain = 0
KSW1 112120Z 02018KT 15/M09 A3023 RMK A01 T01461089  RH  019%=      5-min Rain = 0
KSW1 112121Z 02016KT 15/M09 A3023 RMK A01 T01451087  RH  019%=      5-min Rain = 0
KSW1 112122Z 00017G23KT 15/M09 A3023 RMK A01 T01451086  RH  019%=      5-min Rain = 0
KSW1 112123Z 01019KT 14/M09 A3023 RMK A01 T01441086  RH  019%=      5-min Rain = 0
KSW1 112124Z 00015KT 14/M09 A3023 RMK A01 T01401087  RH  020%=      5-min Rain = 0
KSW1 112125Z 01016G22KT 14/M08 A3023 RMK A01 T01401083  RH  021%=      5-min Rain = 0
KSW1 112126Z 02016G21KT 14/M08 A3023 RMK A01 T01411083  RH  020%=      5-min Rain = 0
KSW1 112127Z 36015G22KT 14/M08 A3023 RMK A01 T01431080  RH  021%=      5-min Rain = 0
KSW1 112128Z 00020KT 14/M08 A3023 RMK A01 T01441081  RH  020%=      5-min Rain = 0
KSW1 112129Z 01017KT 14/M08 A3023 RMK A01 T01431081  RH  020%=      5-min Rain = 0
KSW1 112130Z 35019KT 14/M08 A3023 RMK A01 T01411083  RH  020%=      5-min Rain = 0
KSW1 112131Z 01017G23KT 14/M08 A3023 RMK A01 T01411080  RH  021%=      5-min Rain = 0
KSW1 112132Z 01019G24KT 14/M08 A3023 RMK A01 T01431081  RH  020%=      5-min Rain = 0
KSW1 112133Z 02022KT 14/M08 A3023 RMK A01 T01441082  RH  020%=      5-min Rain = 0
KSW1 112134Z 02021KT 14/M09 A3023 RMK A01 T01411085  RH  020%=      5-min Rain = 0
KSW1 112135Z 01019G24KT 14/M08 A3022 RMK A01 T01391084  RH  020%=      5-min Rain = 0
KSW1 112136Z 01020KT 14/M08 A3022 RMK A01 T01381084  RH  021%=      5-min Rain = 0
KSW1 112137Z 00020KT 14/M08 A3022 RMK A01 T01371084  RH  021%=      5-min Rain = 0
KSW1 112138Z 01015G21KT 14/M08 A3022 RMK A01 T01371083  RH  021%=      5-min Rain = 0
KSW1 112139Z 02016G22KT 14/M08 A3023 RMK A01 T01401078  RH  021%=      5-min Rain = 0
KSW1 112140Z 01017G23KT 14/M08 A3022 RMK A01 T01411081  RH  021%=      5-min Rain = 0
KSW1 112141Z 02016G22KT 14/M08 A3022 RMK A01 T01411080  RH  021%=      5-min Rain = 0
KSW1 112142Z 02017KT 14/M08 A3022 RMK A01 T01411081  RH  021%=      5-min Rain = 0
KSW1 112143Z 00017KT 14/M08 A3022 RMK A01 T01381082  RH  021%=      5-min Rain = 0
KSW1 112144Z 02017KT 14/M08 A3022 RMK A01 T01371081  RH  021%=      5-min Rain = 0
KSW1 112145Z 02018KT 14/M08 A3022 RMK A01 T01361081  RH  021%=      5-min Rain = 0
KSW1 112146Z 01013G18KT 14/M08 A3022 RMK A01 T01371080  RH  021%=      5-min Rain = 0
KSW1 112147Z 02014KT 14/M08 A3022 RMK A01 T01381079  RH  021%=      5-min Rain = 0
KSW1 112148Z 02012KT 14/M08 A3022 RMK A01 T01371082  RH  021%=      5-min Rain = 0
KSW1 112149Z 01013G18KT 14/M08 A3022 RMK A01 T01361082  RH  021%=      5-min Rain = 0
KSW1 112150Z 01019G26KT 14/M09 A3022 RMK A01 T01361085  RH  021%=      5-min Rain = 0
KSW1 112151Z 01020KT 14/M09 A3022 RMK A01 T01361092  RH  020%=      5-min Rain = 0
KSW1 112152Z 36021G26KT 14/M09 A3022 RMK A01 T01351092  RH  020%=      5-min Rain = 0
KSW1 112153Z 00019KT 13/M09 A3022 RMK A01 T01341093  RH  020%=      5-min Rain = 0
KSW1 112154Z 00017KT 13/M09 A3022 RMK A01 T01341093  RH  020%=      5-min Rain = 0
KSW1 112155Z 35017G22KT 13/M09 A3022 RMK A01 T01331092  RH  020%=      5-min Rain = 0
KSW1 112156Z 36016KT 13/M09 A3022 RMK A01 T01321091  RH  020%=      5-min Rain = 0
KSW1 112157Z 01017G24KT 13/M09 A3022 RMK A01 T01331089  RH  020%=      5-min Rain = 0
KSW1 112158Z 01018G24KT 13/M09 A3022 RMK A01 T01341089  RH  020%=      5-min Rain = 0
KSW1 112159Z 02016KT 13/M09 A3022 RMK A01 T01341087  RH  021%=      5-min Rain = 0
KSW1 112200Z 01019KT 13/M09 A3022 RMK A01 T01341087  RH  021%=      5-min Rain = 0
KSW1 112201Z 02016KT 13/M09 A3022 RMK A01 T01331088  RH  021%=      5-min Rain = 0
KSW1 112202Z 01014G19KT 13/M09 A3022 RMK A01 T01321087  RH  021%=      5-min Rain = 0
KSW1 112203Z 01015G21KT 13/M09 A3022 RMK A01 T01331086  RH  021%=      5-min Rain = 0
KSW1 112204Z 01016KT 13/M09 A3022 RMK A01 T01331086  RH  021%=      5-min Rain = 0
KSW1 112205Z 00016KT 13/M08 A3022 RMK A01 T01341084  RH  021%=      5-min Rain = 0
KSW1 112206Z 01015KT 13/M08 A3022 RMK A01 T01341084  RH  021%=      5-min Rain = 0
KSW1 112207Z 36013G19KT 13/M08 A3022 RMK A01 T01341084  RH  021%=      5-min Rain = 0
KSW1 112208Z 00016KT 14/M08 A3022 RMK A01 T01351083  RH  021%=      5-min Rain = 0
KSW1 112209Z 01015KT 14/M08 A3022 RMK A01 T01361083  RH  021%=      5-min Rain = 0
KSW1 112210Z 02015KT 14/M08 A3022 RMK A01 T01351083  RH  021%=      5-min Rain = 0
KSW1 112211Z 01012G17KT 14/M08 A3022 RMK A01 T01361082  RH  021%=      5-min Rain = 0
KSW1 112212Z 36018KT 14/M08 A3022 RMK A01 T01371082  RH  021%=      5-min Rain = 0
KSW1 112213Z 35013KT 14/M08 A3022 RMK A01 T01361084  RH  021%=      5-min Rain = 0
KSW1 112214Z 00014KT 14/M08 A3022 RMK A01 T01351083  RH  021%=      5-min Rain = 0
KSW1 112215Z 01014KT 14/M08 A3022 RMK A01 T01361082  RH  021%=      5-min Rain = 0
KSW1 112216Z 00015KT 14/M08 A3022 RMK A01 T01381082  RH  021%=      5-min Rain = 0
KSW1 112217Z 01013G18KT 14/M08 A3022 RMK A01 T01381082  RH  021%=      5-min Rain = 0
KSW1 112218Z 36014KT 14/M08 A3022 RMK A01 T01381081  RH  021%=      5-min Rain = 0
KSW1 112219Z 01014KT 14/M08 A3022 RMK A01 T01381082  RH  021%=      5-min Rain = 0
KSW1 112220Z 36016KT 14/M08 A3022 RMK A01 T01381082  RH  021%=      5-min Rain = 0
KSW1 112221Z 36016KT 14/M08 A3022 RMK A01 T01401081  RH  021%=      5-min Rain = 0
KSW1 112222Z 36013KT 14/M08 A3022 RMK A01 T01401081  RH  021%=      5-min Rain = 0
KSW1 112223Z 00010KT 14/M08 A3022 RMK A01 T01411080  RH  021%=      5-min Rain = 0
KSW1 112224Z 00012G18KT 14/M08 A3022 RMK A01 T01431079  RH  021%=      5-min Rain = 0
KSW1 112225Z 01016KT 14/M08 A3022 RMK A01 T01441084  RH  020%=      5-min Rain = 0
KSW1 112226Z 36018KT 15/M09 A3022 RMK A01 T01451090  RH  019%=      5-min Rain = 0
KSW1 112227Z 00019KT 15/M09 A3022 RMK A01 T01461094  RH  018%=      5-min Rain = 0
KSW1 112228Z 00018G24KT 15/M10 A3022 RMK A01 T01471098  RH  017%=      5-min Rain = 0
KSW1 112229Z 01021KT 15/M10 A3022 RMK A01 T01461095  RH  018%=      5-min Rain = 0
KSW1 112230Z 01018KT 15/M09 A3022 RMK A01 T01461094  RH  018%=      5-min Rain = 0
KSW1 112231Z 36014G20KT 15/M10 A3022 RMK A01 T01461095  RH  018%=      5-min Rain = 0
KSW1 112232Z 00017KT 15/M10 A3022 RMK A01 T01461097  RH  018%=      5-min Rain = 0
KSW1 112233Z 01017KT 15/M10 A3022 RMK A01 T01471097  RH  018%=      5-min Rain = 0
KSW1 112234Z 00019KT 15/M10 A3022 RMK A01 T01471095  RH  018%=      5-min Rain = 0
KSW1 112235Z 36016G21KT 15/M09 A3022 RMK A01 T01461094  RH  018%=      5-min Rain = 0
KSW1 112236Z 35018G23KT 15/M09 A3022 RMK A01 T01451093  RH  018%=      5-min Rain = 0
KSW1 112237Z 35017G23KT 15/M09 A3022 RMK A01 T01451093  RH  018%=      5-min Rain = 0
KSW1 112238Z 00020KT 15/M09 A3023 RMK A01 T01461092  RH  018%=      5-min Rain = 0
KSW1 112239Z 00017KT 15/M09 A3022 RMK A01 T01461092  RH  018%=      5-min Rain = 0
KSW1 112240Z 01016KT 15/M09 A3023 RMK A01 T01461091  RH  018%=      5-min Rain = 0
KSW1 112241Z 01016KT 15/M09 A3023 RMK A01 T01461092  RH  018%=      5-min Rain = 0
KSW1 112242Z 01013G18KT 15/M09 A3023 RMK A01 T01471092  RH  018%=      5-min Rain = 0
KSW1 112243Z 01017KT 15/M09 A3023 RMK A01 T01481090  RH  018%=      5-min Rain = 0
KSW1 112244Z 01017KT 15/M09 A3023 RMK A01 T01471089  RH  019%=      5-min Rain = 0
KSW1 112245Z 01014KT 15/M09 A3023 RMK A01 T01451088  RH  019%=      5-min Rain = 0
KSW1 112246Z 03017KT 15/M09 A3023 RMK A01 T01451087  RH  019%=      5-min Rain = 0
KSW1 112247Z 03019KT 14/M09 A3023 RMK A01 T01441089  RH  019%=      5-min Rain = 0
KSW1 112248Z 02013G18KT 14/M09 A3023 RMK A01 T01431087  RH  020%=      5-min Rain = 0
KSW1 112249Z 02014G19KT 15/M08 A3023 RMK A01 T01451083  RH  020%=      5-min Rain = 0
KSW1 112250Z 02012KT 15/M08 A3023 RMK A01 T01461082  RH  020%=      5-min Rain = 0
KSW1 112251Z 03018KT 15/M08 A3023 RMK A01 T01461082  RH  020%=      5-min Rain = 0
KSW1 112252Z 03018KT 14/M09 A3023 RMK A01 T01431087  RH  020%=      5-min Rain = 0
KSW1 112253Z 01014G19KT 14/M09 A3023 RMK A01 T01411087  RH  020%=      5-min Rain = 0
KSW1 112254Z 00018KT 14/M09 A3023 RMK A01 T01431087  RH  020%=      5-min Rain = 0
KSW1 112255Z 00018KT 14/M09 A3023 RMK A01 T01431090  RH  019%=      5-min Rain = 0
KSW1 112256Z 00014KT 14/M09 A3023 RMK A01 T01431092  RH  019%=      5-min Rain = 0
KSW1 112257Z 01016KT 14/M10 A3023 RMK A01 T01431097  RH  018%=      5-min Rain = 0
KSW1 112258Z 00017G23KT 14/M10 A3023 RMK A01 T01441097  RH  018%=      5-min Rain = 0
KSW1 112259Z 01019KT 15/M10 A3023 RMK A01 T01451099  RH  018%=      5-min Rain = 0
KSW1 112300Z 02015KT 14/M10 A3023 RMK A01 T01441098  RH  018%=      5-min Rain = 0
KSW1 112301Z 02015KT 14/M09 A3023 RMK A01 T01431093  RH  019%=      5-min Rain = 0
KSW1 112302Z 03016G21KT 14/M09 A3023 RMK A01 T01431090  RH  019%=      5-min Rain = 0
KSW1 112303Z 02019KT 14/M09 A3023 RMK A01 T01431091  RH  019%=      5-min Rain = 0
KSW1 112304Z 02016KT 14/M09 A3023 RMK A01 T01421093  RH  019%=      5-min Rain = 0
KSW1 112305Z 02017KT 14/M09 A3023 RMK A01 T01411094  RH  019%=      5-min Rain = 0
KSW1 112306Z 01017KT 14/M09 A3023 RMK A01 T01411093  RH  019%=      5-min Rain = 0
KSW1 112307Z 01018KT 14/M09 A3023 RMK A01 T01391093  RH  019%=      5-min Rain = 0
KSW1 112308Z 01016KT 14/M09 A3023 RMK A01 T01381092  RH  019%=      5-min Rain = 0
KSW1 112309Z 02013KT 14/M09 A3023 RMK A01 T01371091  RH  020%=      5-min Rain = 0
KSW1 112310Z 01013KT 14/M09 A3023 RMK A01 T01361091  RH  020%=      5-min Rain = 0
KSW1 112311Z 01014KT 14/M09 A3023 RMK A01 T01351091  RH  020%=      5-min Rain = 0
KSW1 112312Z 01015KT 13/M09 A3023 RMK A01 T01341090  RH  020%=      5-min Rain = 0
KSW1 112313Z 02015KT 14/M09 A3023 RMK A01 T01351090  RH  020%=      5-min Rain = 0
KSW1 112314Z 03015KT 14/M09 A3023 RMK A01 T01351089  RH  020%=      5-min Rain = 0
KSW1 112315Z 03015KT 14/M09 A3023 RMK A01 T01351090  RH  020%=      5-min Rain = 0
KSW1 112316Z 03016KT 13/M09 A3023 RMK A01 T01341089  RH  020%=      5-min Rain = 0
KSW1 112317Z 01016KT 13/M09 A3023 RMK A01 T01341088  RH  021%=      5-min Rain = 0
KSW1 112318Z 01016KT 13/M09 A3023 RMK A01 T01341086  RH  021%=      5-min Rain = 0
KSW1 112319Z 01016KT 13/M09 A3023 RMK A01 T01341086  RH  021%=      5-min Rain = 0
KSW1 112320Z 01013KT 13/M09 A3023 RMK A01 T01341086  RH  021%=      5-min Rain = 0
KSW1 112321Z 02015KT 13/M09 A3023 RMK A01 T01331087  RH  021%=      5-min Rain = 0
KSW1 112322Z 02014KT 13/M09 A3023 RMK A01 T01331089  RH  020%=      5-min Rain = 0
KSW1 112323Z 02013KT 13/M09 A3023 RMK A01 T01331088  RH  021%=      5-min Rain = 0
KSW1 112324Z 02013KT 13/M09 A3023 RMK A01 T01341088  RH  021%=      5-min Rain = 0
KSW1 112325Z 02014G19KT 13/M09 A3023 RMK A01 T01341086  RH  021%=      5-min Rain = 0
KSW1 112326Z 02015KT 13/M09 A3023 RMK A01 T01341085  RH  021%=      5-min Rain = 0
KSW1 112327Z 02015KT 13/M08 A3023 RMK A01 T01331084  RH  021%=      5-min Rain = 0
KSW1 112328Z 02012KT 13/M08 A3023 RMK A01 T01331084  RH  021%=      5-min Rain = 0
KSW1 112329Z 02014KT 13/M08 A3023 RMK A01 T01331083  RH  021%=      5-min Rain = 0
KSW1 112330Z 02013KT 13/M09 A3023 RMK A01 T01331085  RH  021%=      5-min Rain = 0
KSW1 112331Z 02012KT 13/M08 A3023 RMK A01 T01341084  RH  021%=      5-min Rain = 0
KSW1 112332Z 02013KT 14/M08 A3023 RMK A01 T01361083  RH  021%=      5-min Rain = 0
KSW1 112333Z 02015KT 14/M08 A3023 RMK A01 T01371083  RH  021%=      5-min Rain = 0
KSW1 112334Z 02018KT 14/M09 A3023 RMK A01 T01351085  RH  021%=      5-min Rain = 0
KSW1 112335Z 03015KT 13/M09 A3023 RMK A01 T01341085  RH  021%=      5-min Rain = 0
KSW1 112336Z 03015KT 13/M09 A3023 RMK A01 T01321085  RH  021%=      5-min Rain = 0
KSW1 112337Z 02011KT 13/M08 A3024 RMK A01 T01321084  RH  021%=      5-min Rain = 0
KSW1 112338Z 02013KT 13/M08 A3024 RMK A01 T01341081  RH  022%=      5-min Rain = 0
KSW1 112339Z 02012KT 14/M08 A3024 RMK A01 T01351082  RH  021%=      5-min Rain = 0
KSW1 112340Z 02014KT 13/M08 A3024 RMK A01 T01341083  RH  021%=      5-min Rain = 0
KSW1 112341Z 03014KT 13/M08 A3024 RMK A01 T01331082  RH  022%=      5-min Rain = 0
KSW1 112342Z 02016KT 13/M08 A3024 RMK A01 T01341081  RH  022%=      5-min Rain = 0
KSW1 112343Z 02013KT 13/M08 A3024 RMK A01 T01331081  RH  022%=      5-min Rain = 0
KSW1 112344Z 02012KT 13/M08 A3024 RMK A01 T01331081  RH  022%=      5-min Rain = 0
KSW1 112345Z 02012G17KT 13/M08 A3024 RMK A01 T01321082  RH  022%=      5-min Rain = 0
KSW1 112346Z 03014KT 13/M08 A3024 RMK A01 T01321081  RH  022%=      5-min Rain = 0
KSW1 112347Z 01012KT 13/M08 A3024 RMK A01 T01321081  RH  022%=      5-min Rain = 0
KSW1 112348Z 01013KT 13/M08 A3024 RMK A01 T01321080  RH  022%=      5-min Rain = 0
KSW1 112349Z 01015KT 13/M08 A3024 RMK A01 T01331080  RH  022%=      5-min Rain = 0
KSW1 112350Z 00014KT 13/M08 A3024 RMK A01 T01321081  RH  022%=      5-min Rain = 0
KSW1 112351Z 00012KT 13/M08 A3024 RMK A01 T01321080  RH  022%=      5-min Rain = 0
KSW1 112352Z 36012KT 13/M08 A3024 RMK A01 T01321080  RH  022%=      5-min Rain = 0
KSW1 112353Z 02011KT 13/M08 A3024 RMK A01 T01321080  RH  022%=      5-min Rain = 0
KSW1 112354Z 02011KT 13/M08 A3024 RMK A01 T01311080  RH  022%=      5-min Rain = 0
KSW1 112355Z 02012KT 13/M08 A3024 RMK A01 T01311079  RH  022%=      5-min Rain = 0
KSW1 112356Z 02011KT 13/M08 A3024 RMK A01 T01311079  RH  022%=      5-min Rain = 0
KSW1 112357Z 02010KT 13/M08 A3024 RMK A01 T01301079  RH  023%=      5-min Rain = 0
KSW1 112358Z 01009KT 13/M08 A3024 RMK A01 T01301078  RH  023%=      5-min Rain = 0
KSW1 112359Z 02009KT 13/M08 A3024 RMK A01 T01301077  RH  023%=      5-min Rain = 0
KSW1 120000Z 02011KT 13/M08 A3024 RMK A01 T01301078  RH  023%=      5-min Rain = 0
KSW1 120001Z 02010KT 13/M08 A3024 RMK A01 T01311078  RH  023%=      5-min Rain = 0
KSW1 120002Z 03012KT 13/M08 A3024 RMK A01 T01301078  RH  023%=      5-min Rain = 0
KSW1 120003Z 02011KT 13/M08 A3024 RMK A01 T01291078  RH  023%=      5-min Rain = 0
KSW1 120004Z 02011KT 13/M08 A3025 RMK A01 T01291078  RH  023%=      5-min Rain = 0
KSW1 120005Z 02010KT 13/M08 A3025 RMK A01 T01291078  RH  023%=      5-min Rain = 0
KSW1 120006Z 02009KT 13/M08 A3025 RMK A01 T01281077  RH  023%=      5-min Rain = 0
KSW1 120007Z 02011KT 13/M08 A3025 RMK A01 T01281078  RH  023%=      5-min Rain = 0
KSW1 120008Z 01011KT 13/M08 A3025 RMK A01 T01281078  RH  023%=      5-min Rain = 0
KSW1 120009Z 02010KT 13/M08 A3025 RMK A01 T01281078  RH  023%=      5-min Rain = 0
KSW1 120010Z 01008KT 13/M08 A3025 RMK A01 T01281078  RH  023%=      5-min Rain = 0
KSW1 120011Z 02010KT 13/M08 A3025 RMK A01 T01281078  RH  023%=      5-min Rain = 0
KSW1 120012Z 01011KT 13/M08 A3025 RMK A01 T01281079  RH  023%=      5-min Rain = 0
KSW1 120013Z 02011KT 13/M08 A3025 RMK A01 T01281080  RH  023%=      5-min Rain = 0
KSW1 120014Z 01012KT 13/M08 A3025 RMK A01 T01281080  RH  023%=      5-min Rain = 0
KSW1 120015Z 01010KT 13/M08 A3025 RMK A01 T01271080  RH  023%=      5-min Rain = 0
KSW1 120016Z 01010KT 13/M08 A3025 RMK A01 T01271080  RH  023%=      5-min Rain = 0
KSW1 120017Z 01011KT 13/M08 A3025 RMK A01 T01271080  RH  023%=      5-min Rain = 0
KSW1 120018Z 01008KT 13/M08 A3025 RMK A01 T01271079  RH  023%=      5-min Rain = 0
KSW1 120019Z 01008KT 13/M08 A3025 RMK A01 T01261079  RH  023%=      5-min Rain = 0
KSW1 120020Z 01007KT 13/M08 A3025 RMK A01 T01261078  RH  023%=      5-min Rain = 0
KSW1 120021Z 01007KT 13/M08 A3025 RMK A01 T01261078  RH  023%=      5-min Rain = 0
KSW1 120022Z 02008KT 13/M08 A3025 RMK A01 T01251079  RH  023%=      5-min Rain = 0
KSW1 120023Z 02009KT 12/M08 A3025 RMK A01 T01241080  RH  023%=      5-min Rain = 0
KSW1 120024Z 01010KT 12/M08 A3025 RMK A01 T01241080  RH  023%=      5-min Rain = 0
KSW1 120025Z 02009KT 12/M08 A3025 RMK A01 T01231081  RH  023%=      5-min Rain = 0
KSW1 120026Z 02008KT 12/M08 A3025 RMK A01 T01231081  RH  023%=      5-min Rain = 0
KSW1 120027Z 01007KT 12/M08 A3025 RMK A01 T01221080  RH  024%=      5-min Rain = 0
KSW1 120028Z 01008KT 12/M08 A3025 RMK A01 T01211080  RH  024%=      5-min Rain = 0
KSW1 120029Z 01010KT 12/M08 A3025 RMK A01 T01201081  RH  024%=      5-min Rain = 0
KSW1 120030Z 01010KT 12/M08 A3025 RMK A01 T01191081  RH  024%=      5-min Rain = 0
KSW1 120031Z 01007KT 12/M08 A3025 RMK A01 T01191081  RH  024%=      5-min Rain = 0
KSW1 120032Z 01008KT 12/M08 A3025 RMK A01 T01181080  RH  024%=      5-min Rain = 0
KSW1 120033Z 01008KT 12/M08 A3025 RMK A01 T01171081  RH  024%=      5-min Rain = 0
KSW1 120034Z 01009KT 12/M08 A3026 RMK A01 T01171081  RH  024%=      5-min Rain = 0
KSW1 120035Z 01008KT 12/M08 A3026 RMK A01 T01161081  RH  024%=      5-min Rain = 0
KSW1 120036Z 01008KT 12/M08 A3026 RMK A01 T01151081  RH  025%=      5-min Rain = 0
KSW1 120037Z 01007KT 11/M08 A3026 RMK A01 T01141081  RH  025%=      5-min Rain = 0
KSW1 120038Z 01007KT 11/M08 A3026 RMK A01 T01131081  RH  025%=      5-min Rain = 0
KSW1 120039Z 01008KT 11/M08 A3026 RMK A01 T01131081  RH  025%=      5-min Rain = 0
KSW1 120040Z 01008KT 11/M08 A3026 RMK A01 T01121081  RH  025%=      5-min Rain = 0
KSW1 120041Z 01008KT 11/M08 A3026 RMK A01 T01111081  RH  025%=      5-min Rain = 0
KSW1 120042Z 01007KT 11/M08 A3026 RMK A01 T01121081  RH  025%=      5-min Rain = 0
KSW1 120043Z 00007KT 11/M08 A3026 RMK A01 T01111081  RH  025%=      5-min Rain = 0
KSW1 120044Z 00007KT 11/M08 A3026 RMK A01 T01101080  RH  025%=      5-min Rain = 0
KSW1 120045Z 00007KT 11/M08 A3026 RMK A01 T01101081  RH  025%=      5-min Rain = 0
KSW1 120046Z 00007KT 11/M08 A3026 RMK A01 T01091080  RH  026%=      5-min Rain = 0
KSW1 120047Z 00008KT 11/M08 A3026 RMK A01 T01091081  RH  026%=      5-min Rain = 0
KSW1 120048Z 00007KT 11/M08 A3026 RMK A01 T01081080  RH  026%=      5-min Rain = 0
KSW1 120049Z 00006KT 11/M08 A3026 RMK A01 T01071080  RH  026%=      5-min Rain = 0
KSW1 120050Z 00007KT 11/M08 A3026 RMK A01 T01061080  RH  026%=      5-min Rain = 0
KSW1 120051Z 00007KT 11/M08 A3026 RMK A01 T01061080  RH  026%=      5-min Rain = 0
KSW1 120052Z 00007KT 11/M08 A3026 RMK A01 T01051080  RH  026%=      5-min Rain = 0
KSW1 120053Z 01007KT 10/M08 A3026 RMK A01 T01041081  RH  026%=      5-min Rain = 0
KSW1 120054Z 01007KT 10/M08 A3026 RMK A01 T01041081  RH  027%=      5-min Rain = 0
KSW1 120055Z 00007KT 10/M08 A3026 RMK A01 T01041081  RH  027%=      5-min Rain = 0
KSW1 120056Z 01007KT 10/M08 A3026 RMK A01 T01041081  RH  027%=      5-min Rain = 0
KSW1 120057Z 01007KT 10/M08 A3026 RMK A01 T01041081  RH  026%=      5-min Rain = 0
KSW1 120058Z 00007KT 10/M08 A3026 RMK A01 T01031081  RH  027%=      5-min Rain = 0
KSW1 120059Z 00007KT 10/M08 A3026 RMK A01 T01031081  RH  027%=      5-min Rain = 0
KSW1 120100Z 00006KT 10/M08 A3026 RMK A01 T01021081  RH  027%=      5-min Rain = 0
KSW1 120101Z 01006KT 10/M08 A3026 RMK A01 T01011082  RH  027%=      5-min Rain = 0
KSW1 120102Z 00006KT 10/M08 A3026 RMK A01 T01001081  RH  027%=      5-min Rain = 0
KSW1 120103Z 00006KT 10/M08 A3026 RMK A01 T00991081  RH  027%=      5-min Rain = 0
KSW1 120104Z 00007KT 10/M08 A3026 RMK A01 T00971082  RH  027%=      5-min Rain = 0
KSW1 120105Z 01007KT 10/M08 A3026 RMK A01 T00961082  RH  028%=      5-min Rain = 0
KSW1 120106Z 01007KT 10/M08 A3026 RMK A01 T00951082  RH  028%=      5-min Rain = 0
KSW1 120107Z 01007KT 09/M08 A3026 RMK A01 T00941083  RH  028%=      5-min Rain = 0
KSW1 120108Z 00006KT 09/M08 A3026 RMK A01 T00941082  RH  028%=      5-min Rain = 0
KSW1 120109Z 00006KT 09/M08 A3026 RMK A01 T00931083  RH  028%=      5-min Rain = 0
KSW1 120110Z 01007KT 09/M08 A3026 RMK A01 T00921083  RH  028%=      5-min Rain = 0
KSW1 120111Z 01008KT 09/M08 A3026 RMK A01 T00921082  RH  028%=      5-min Rain = 0
KSW1 120112Z 01008KT 09/M08 A3026 RMK A01 T00911083  RH  028%=      5-min Rain = 0
KSW1 120113Z 01008KT 09/M08 A3026 RMK A01 T00911083  RH  028%=      5-min Rain = 0
KSW1 120114Z 01008KT 09/M08 A3026 RMK A01 T00911084  RH  028%=      5-min Rain = 0
KSW1 120115Z 01008KT 09/M08 A3026 RMK A01 T00921083  RH  028%=      5-min Rain = 0
KSW1 120116Z 01008KT 09/M08 A3026 RMK A01 T00921083  RH  028%=      5-min Rain = 0
KSW1 120117Z 01008KT 09/M08 A3026 RMK A01 T00931083  RH  028%=      5-min Rain = 0
KSW1 120118Z 01008KT 09/M08 A3026 RMK A01 T00931083  RH  028%=      5-min Rain = 0
KSW1 120119Z 01008KT 09/M08 A3026 RMK A01 T00931083  RH  028%=      5-min Rain = 0
KSW1 120120Z 01008KT 09/M08 A3026 RMK A01 T00931083  RH  028%=      5-min Rain = 0
KSW1 120121Z 01009KT 09/M08 A3026 RMK A01 T00931083  RH  028%=      5-min Rain = 0
KSW1 120122Z 01009KT 09/M08 A3026 RMK A01 T00931083  RH  028%=      5-min Rain = 0
KSW1 120123Z 01008KT 09/M08 A3026 RMK A01 T00941083  RH  028%=      5-min Rain = 0
KSW1 120124Z 01008KT 10/M08 A3026 RMK A01 T00951083  RH  028%=      5-min Rain = 0
KSW1 120125Z 01008KT 10/M08 A3026 RMK A01 T00951083  RH  027%=      5-min Rain = 0
KSW1 120126Z 01008KT 10/M08 A3026 RMK A01 T00951084  RH  027%=      5-min Rain = 0
KSW1 120127Z 01008KT 10/M08 A3026 RMK A01 T00951084  RH  027%=      5-min Rain = 0
KSW1 120128Z 01007KT 10/M08 A3026 RMK A01 T00951084  RH  027%=      5-min Rain = 0
KSW1 120129Z 01007KT 10/M09 A3026 RMK A01 T00951085  RH  027%=      5-min Rain = 0
KSW1 120130Z 02007KT 10/M09 A3026 RMK A01 T00951085  RH  027%=      5-min Rain = 0
KSW1 120131Z 01007KT 09/M09 A3027 RMK A01 T00941086  RH  027%=      5-min Rain = 0
KSW1 120132Z 02007KT 09/M09 A3027 RMK A01 T00931087  RH  027%=      5-min Rain = 0
KSW1 120133Z 01007KT 09/M09 A3027 RMK A01 T00931087  RH  027%=      5-min Rain = 0
KSW1 120134Z 02008KT 09/M09 A3027 RMK A01 T00931088  RH  027%=      5-min Rain = 0
KSW1 120135Z 02008KT 09/M09 A3027 RMK A01 T00921089  RH  027%=      5-min Rain = 0
KSW1 120136Z 02008KT 09/M09 A3027 RMK A01 T00911089  RH  027%=      5-min Rain = 0
KSW1 120137Z 02008KT 09/M09 A3027 RMK A01 T00911090  RH  027%=      5-min Rain = 0
KSW1 120138Z 02008KT 09/M09 A3027 RMK A01 T00911091  RH  027%=      5-min Rain = 0
KSW1 120139Z 02008KT 09/M09 A3027 RMK A01 T00911091  RH  027%=      5-min Rain = 0
KSW1 120140Z 02008KT 09/M09 A3027 RMK A01 T00911092  RH  027%=      5-min Rain = 0
KSW1 120141Z 02008KT 09/M09 A3027 RMK A01 T00901092  RH  027%=      5-min Rain = 0
KSW1 120142Z 02008KT 09/M09 A3027 RMK A01 T00891093  RH  027%=      5-min Rain = 0
KSW1 120143Z 02008KT 09/M09 A3027 RMK A01 T00881093  RH  027%=      5-min Rain = 0
KSW1 120144Z 02008KT 09/M09 A3027 RMK A01 T00871094  RH  027%=      5-min Rain = 0
KSW1 120145Z 03008KT 09/M09 A3027 RMK A01 T00871094  RH  027%=      5-min Rain = 0
KSW1 120146Z 02008KT 09/M09 A3027 RMK A01 T00861094  RH  027%=      5-min Rain = 0
KSW1 120147Z 02008KT 09/M09 A3027 RMK A01 T00861094  RH  027%=      5-min Rain = 0
KSW1 120148Z 02007KT 09/M10 A3027 RMK A01 T00861095  RH  027%=      5-min Rain = 0
KSW1 120149Z 02007KT 09/M10 A3027 RMK A01 T00861096  RH  027%=      5-min Rain = 0
KSW1 120150Z 02008KT 09/M10 A3027 RMK A01 T00871096  RH  026%=      5-min Rain = 0
KSW1 120151Z 02008KT 09/M10 A3027 RMK A01 T00871096  RH  026%=      5-min Rain = 0
KSW1 120152Z 02008KT 09/M10 A3027 RMK A01 T00871097  RH  026%=      5-min Rain = 0
KSW1 120153Z 02008KT 09/M10 A3027 RMK A01 T00881096  RH  026%=      5-min Rain = 0
KSW1 120154Z 02007KT 09/M10 A3027 RMK A01 T00871097  RH  026%=      5-min Rain = 0
KSW1 120155Z 02007KT 09/M10 A3027 RMK A01 T00871097  RH  026%=      5-min Rain = 0
KSW1 120156Z 02007KT 09/M10 A3027 RMK A01 T00871097  RH  026%=      5-min Rain = 0
KSW1 120157Z 02007KT 09/M10 A3028 RMK A01 T00871098  RH  026%=      5-min Rain = 0
KSW1 120158Z 02007KT 09/M10 A3028 RMK A01 T00871098  RH  026%=      5-min Rain = 0
KSW1 120159Z 03007KT 09/M10 A3028 RMK A01 T00861098  RH  026%=      5-min Rain = 0
KSW1 120200Z 03007KT 09/M10 A3028 RMK A01 T00851099  RH  026%=      5-min Rain = 0
KSW1 120201Z 03007KT 09/M10 A3028 RMK A01 T00851098  RH  026%=      5-min Rain = 0
KSW1 120202Z 03007KT 08/M10 A3028 RMK A01 T00841098  RH  026%=      5-min Rain = 0
KSW1 120203Z 03007KT 08/M10 A3028 RMK A01 T00831098  RH  026%=      5-min Rain = 0
KSW1 120204Z 03006KT 08/M10 A3028 RMK A01 T00831098  RH  027%=      5-min Rain = 0
KSW1 120205Z 04006KT 08/M10 A3028 RMK A01 T00821098  RH  027%=      5-min Rain = 0
KSW1 120206Z 04007KT 08/M10 A3028 RMK A01 T00811099  RH  027%=      5-min Rain = 0
KSW1 120207Z 03007KT 08/M10 A3028 RMK A01 T00811100  RH  027%=      5-min Rain = 0
KSW1 120208Z 03008KT 08/M10 A3028 RMK A01 T00811101  RH  026%=      5-min Rain = 0
KSW1 120209Z 03008KT 08/M10 A3028 RMK A01 T00821101  RH  026%=      5-min Rain = 0
KSW1 120210Z 03008KT 08/M10 A3028 RMK A01 T00831103  RH  026%=      5-min Rain = 0
KSW1 120211Z 03008KT 08/M10 A3028 RMK A01 T00841103  RH  025%=      5-min Rain = 0
KSW1 120212Z 03008KT 09/M10 A3028 RMK A01 T00851103  RH  025%=      5-min Rain = 0
KSW1 120213Z 03008KT 09/M10 A3028 RMK A01 T00851103  RH  025%=      5-min Rain = 0
KSW1 120214Z 03008KT 09/M10 A3028 RMK A01 T00851104  RH  025%=      5-min Rain = 0
KSW1 120215Z 03007KT 09/M11 A3028 RMK A01 T00851105  RH  025%=      5-min Rain = 0
KSW1 120216Z 03007KT 09/M11 A3028 RMK A01 T00851105  RH  025%=      5-min Rain = 0
KSW1 120217Z 04007KT 08/M11 A3028 RMK A01 T00841105  RH  025%=      5-min Rain = 0
KSW1 120218Z 03008KT 08/M11 A3028 RMK A01 T00831105  RH  025%=      5-min Rain = 0
KSW1 120219Z 04008KT 08/M11 A3028 RMK A01 T00821105  RH  025%=      5-min Rain = 0
KSW1 120220Z 03008KT 08/M10 A3028 RMK A01 T00821104  RH  026%=      5-min Rain = 0
KSW1 120221Z 03008KT 08/M10 A3028 RMK A01 T00811104  RH  026%=      5-min Rain = 0
KSW1 120222Z 03008KT 08/M10 A3028 RMK A01 T00811104  RH  026%=      5-min Rain = 0
KSW1 120223Z 03008KT 08/M10 A3028 RMK A01 T00801104  RH  026%=      5-min Rain = 0
KSW1 120224Z 03008KT 08/M10 A3028 RMK A01 T00801104  RH  026%=      5-min Rain = 0
KSW1 120225Z 03008KT 08/M10 A3028 RMK A01 T00801104  RH  026%=      5-min Rain = 0
KSW1 120226Z 03008KT 08/M10 A3028 RMK A01 T00801104  RH  026%=      5-min Rain = 0
KSW1 120227Z 03009KT 08/M11 A3028 RMK A01 T00801105  RH  026%=      5-min Rain = 0
KSW1 120228Z 04009KT 08/M11 A3028 RMK A01 T00811105  RH  026%=      5-min Rain = 0
KSW1 120229Z 04008KT 08/M11 A3028 RMK A01 T00811106  RH  025%=      5-min Rain = 0
KSW1 120230Z 04008KT 08/M11 A3028 RMK A01 T00821106  RH  025%=      5-min Rain = 0
KSW1 120231Z 03008KT 08/M11 A3028 RMK A01 T00821107  RH  025%=      5-min Rain = 0
KSW1 120232Z 03008KT 08/M11 A3029 RMK A01 T00821107  RH  025%=      5-min Rain = 0
KSW1 120233Z 03008KT 08/M11 A3029 RMK A01 T00821107  RH  025%=      5-min Rain = 0
KSW1 120234Z 03008KT 08/M11 A3029 RMK A01 T00821107  RH  025%=      5-min Rain = 0
KSW1 120235Z 04008KT 08/M11 A3029 RMK A01 T00821108  RH  025%=      5-min Rain = 0
KSW1 120236Z 04008KT 08/M11 A3029 RMK A01 T00821107  RH  025%=      5-min Rain = 0
KSW1 120237Z 04008KT 08/M11 A3029 RMK A01 T00811107  RH  025%=      5-min Rain = 0
KSW1 120238Z 04007KT 08/M11 A3029 RMK A01 T00811107  RH  025%=      5-min Rain = 0
KSW1 120239Z 04007KT 08/M11 A3029 RMK A01 T00801107  RH  025%=      5-min Rain = 0
KSW1 120240Z 04007KT 08/M11 A3029 RMK A01 T00801107  RH  025%=      5-min Rain = 0
KSW1 120241Z 04007KT 08/M11 A3029 RMK A01 T00791107  RH  025%=      5-min Rain = 0
KSW1 120242Z 04007KT 08/M11 A3029 RMK A01 T00781107  RH  026%=      5-min Rain = 0
KSW1 120243Z 04006KT 08/M11 A3029 RMK A01 T00781106  RH  026%=      5-min Rain = 0
KSW1 120244Z 04007KT 08/M11 A3029 RMK A01 T00771106  RH  026%=      5-min Rain = 0
KSW1 120245Z 04007KT 08/M11 A3029 RMK A01 T00761107  RH  026%=      5-min Rain = 0
KSW1 120246Z 04007KT 08/M11 A3029 RMK A01 T00771106  RH  026%=      5-min Rain = 0
KSW1 120247Z 04007KT 08/M11 A3029 RMK A01 T00771107  RH  026%=      5-min Rain = 0
KSW1 120248Z 04007KT 08/M11 A3029 RMK A01 T00771106  RH  026%=      5-min Rain = 0
KSW1 120249Z 04007KT 08/M11 A3029 RMK A01 T00771107  RH  026%=      5-min Rain = 0
KSW1 120250Z 04007KT 08/M11 A3029 RMK A01 T00771107  RH  026%=      5-min Rain = 0
KSW1 120251Z 04007KT 08/M11 A3029 RMK A01 T00771107  RH  026%=      5-min Rain = 0
KSW1 120252Z 04007KT 08/M11 A303 RMK A01 T00771106  RH  026%=      5-min Rain = 0
KSW1 120253Z 04007KT 08/M11 A303 RMK A01 T00771107  RH  026%=      5-min Rain = 0
KSW1 120254Z 04007KT 08/M11 A303 RMK A01 T00761107  RH  026%=      5-min Rain = 0
KSW1 120255Z 04007KT 08/M11 A303 RMK A01 T00761108  RH  026%=      5-min Rain = 0
KSW1 120256Z 04007KT 08/M11 A303 RMK A01 T00771108  RH  026%=      5-min Rain = 0
KSW1 120257Z 04007KT 08/M11 A3029 RMK A01 T00771108  RH  026%=      5-min Rain = 0
KSW1 120258Z 04007KT 08/M11 A3029 RMK A01 T00771109  RH  025%=      5-min Rain = 0
KSW1 120259Z 04007KT 08/M11 A3029 RMK A01 T00781109  RH  025%=      5-min Rain = 0
KSW1 120300Z 04007KT 08/M11 A303 RMK A01 T00791109  RH  025%=      5-min Rain = 0
KSW1 120301Z 04007KT 08/M11 A303 RMK A01 T00801109  RH  025%=      5-min Rain = 0
KSW1 120302Z 04007KT 08/M11 A303 RMK A01 T00801109  RH  025%=      5-min Rain = 0
KSW1 120303Z 04007KT 08/M11 A303 RMK A01 T00801109  RH  025%=      5-min Rain = 0
KSW1 120304Z 04007KT 08/M11 A303 RMK A01 T00801109  RH  025%=      5-min Rain = 0
KSW1 120305Z 04007KT 08/M11 A303 RMK A01 T00801108  RH  025%=      5-min Rain = 0
KSW1 120306Z 04007KT 08/M11 A303 RMK A01 T00791107  RH  025%=      5-min Rain = 0
KSW1 120307Z 04007KT 08/M11 A303 RMK A01 T00791106  RH  026%=      5-min Rain = 0
KSW1 120308Z 04007KT 08/M11 A303 RMK A01 T00781107  RH  026%=      5-min Rain = 0
KSW1 120309Z 04007KT 08/M11 A303 RMK A01 T00771106  RH  026%=      5-min Rain = 0
KSW1 120310Z 04007KT 08/M11 A303 RMK A01 T00771106  RH  026%=      5-min Rain = 0
KSW1 120311Z 04007KT 08/M11 A303 RMK A01 T00771105  RH  026%=      5-min Rain = 0
KSW1 120312Z 04006KT 08/M10 A303 RMK A01 T00771104  RH  026%=      5-min Rain = 0
KSW1 120313Z 04006KT 08/M10 A303 RMK A01 T00771103  RH  027%=      5-min Rain = 0
KSW1 120314Z 04006KT 08/M10 A303 RMK A01 T00771103  RH  027%=      5-min Rain = 0
KSW1 120315Z 04006KT 08/M10 A303 RMK A01 T00781103  RH  027%=      5-min Rain = 0
KSW1 120316Z 04007KT 08/M10 A303 RMK A01 T00771103  RH  027%=      5-min Rain = 0
KSW1 120317Z 04006KT 08/M10 A303 RMK A01 T00781103  RH  027%=      5-min Rain = 0
KSW1 120318Z 04006KT 08/M10 A3031 RMK A01 T00781102  RH  027%=      5-min Rain = 0
KSW1 120319Z 05006KT 08/M10 A3031 RMK A01 T00781102  RH  027%=      5-min Rain = 0
KSW1 120320Z 05006KT 08/M10 A3031 RMK A01 T00771101  RH  027%=      5-min Rain = 0
KSW1 120321Z 05005KT 08/M10 A3031 RMK A01 T00761101  RH  027%=      5-min Rain = 0
KSW1 120322Z 04005KT 08/M10 A3031 RMK A01 T00761101  RH  027%=      5-min Rain = 0
KSW1 120323Z 04005KT 08/M10 A3031 RMK A01 T00751100  RH  027%=      5-min Rain = 0
KSW1 120324Z 04005KT 07/M10 A3031 RMK A01 T00741101  RH  028%=      5-min Rain = 0
KSW1 120325Z 04005KT 07/M10 A3031 RMK A01 T00741101  RH  028%=      5-min Rain = 0
KSW1 120326Z 04006KT 07/M10 A3031 RMK A01 T00731101  RH  028%=      5-min Rain = 0
KSW1 120327Z 04005KT 07/M10 A3031 RMK A01 T00741101  RH  028%=      5-min Rain = 0
KSW1 120328Z 04005KT 07/M10 A3031 RMK A01 T00741100  RH  028%=      5-min Rain = 0
KSW1 120329Z 04005KT 07/M10 A3031 RMK A01 T00741101  RH  028%=      5-min Rain = 0
KSW1 120330Z 04005KT 07/M10 A3031 RMK A01 T00731100  RH  028%=      5-min Rain = 0
KSW1 120331Z 05005KT 07/M10 A3031 RMK A01 T00721100  RH  028%=      5-min Rain = 0
KSW1 120332Z 04005KT 07/M10 A3031 RMK A01 T00711101  RH  028%=      5-min Rain = 0
KSW1 120333Z 04005KT 07/M10 A3031 RMK A01 T00701101  RH  028%=      5-min Rain = 0
KSW1 120334Z 04005KT 07/M10 A3031 RMK A01 T00701100  RH  029%=      5-min Rain = 0
KSW1 120335Z 05005KT 07/M10 A3031 RMK A01 T00701100  RH  029%=      5-min Rain = 0
KSW1 120336Z 05005KT 07/M10 A3031 RMK A01 T00691099  RH  029%=      5-min Rain = 0
KSW1 120337Z 05005KT 07/M10 A3031 RMK A01 T00691099  RH  029%=      5-min Rain = 0
KSW1 120338Z 05005KT 07/M10 A3031 RMK A01 T00681099  RH  029%=      5-min Rain = 0
KSW1 120339Z 05006KT 07/M10 A3031 RMK A01 T00671099  RH  029%=      5-min Rain = 0
KSW1 120340Z 05006KT 07/M10 A3032 RMK A01 T00661099  RH  030%=      5-min Rain = 0
KSW1 120341Z 05006KT 07/M10 A3032 RMK A01 T00651098  RH  030%=      5-min Rain = 0
KSW1 120342Z 05006KT 06/M10 A3032 RMK A01 T00641097  RH  030%=      5-min Rain = 0
KSW1 120343Z 05006KT 06/M10 A3032 RMK A01 T00641097  RH  031%=      5-min Rain = 0
KSW1 120344Z 04006KT 06/M10 A3032 RMK A01 T00631096  RH  031%=      5-min Rain = 0
KSW1 120345Z 04006KT 06/M10 A3032 RMK A01 T00631096  RH  031%=      5-min Rain = 0
KSW1 120346Z 04006KT 06/M10 A3032 RMK A01 T00631095  RH  031%=      5-min Rain = 0
KSW1 120347Z 04006KT 06/M10 A3032 RMK A01 T00631095  RH  031%=      5-min Rain = 0
KSW1 120348Z 04006KT 06/M09 A3032 RMK A01 T00641094  RH  031%=      5-min Rain = 0
KSW1 120349Z 04006KT 06/M09 A3032 RMK A01 T00641094  RH  031%=      5-min Rain = 0
KSW1 120350Z 04006KT 07/M09 A3032 RMK A01 T00651093  RH  031%=      5-min Rain = 0
KSW1 120351Z 04006KT 07/M09 A3032 RMK A01 T00651093  RH  031%=      5-min Rain = 0
KSW1 120352Z 04006KT 07/M09 A3032 RMK A01 T00661093  RH  031%=      5-min Rain = 0
KSW1 120353Z 04006KT 07/M09 A3032 RMK A01 T00661093  RH  031%=      5-min Rain = 0
KSW1 120354Z 04006KT 07/M09 A3032 RMK A01 T00671093  RH  031%=      5-min Rain = 0
KSW1 120355Z 04006KT 07/M09 A3032 RMK A01 T00671093  RH  031%=      5-min Rain = 0
KSW1 120356Z 04006KT 07/M09 A3032 RMK A01 T00681093  RH  031%=      5-min Rain = 0
KSW1 120357Z 04006KT 07/M09 A3032 RMK A01 T00691093  RH  030%=      5-min Rain = 0
KSW1 120358Z 04006KT 07/M09 A3033 RMK A01 T00691093  RH  030%=      5-min Rain = 0
KSW1 120359Z 04006KT 07/M09 A3033 RMK A01 T00691093  RH  031%=      5-min Rain = 0
KSW1 120400Z 04006KT 07/M09 A3033 RMK A01 T00701092  RH  031%=      5-min Rain = 0
KSW1 120401Z 04006KT 07/M09 A3033 RMK A01 T00691093  RH  031%=      5-min Rain = 0
KSW1 120402Z 04006KT 07/M09 A3033 RMK A01 T00691092  RH  031%=      5-min Rain = 0
KSW1 120403Z 04006KT 07/M09 A3033 RMK A01 T00681092  RH  031%=      5-min Rain = 0
KSW1 120404Z 04007KT 07/M09 A3033 RMK A01 T00691092  RH  031%=      5-min Rain = 0
KSW1 120405Z 04007KT 07/M09 A3033 RMK A01 T00681092  RH  031%=      5-min Rain = 0
KSW1 120406Z 04007KT 07/M09 A3033 RMK A01 T00681092  RH  031%=      5-min Rain = 0
KSW1 120407Z 04007KT 07/M09 A3033 RMK A01 T00681092  RH  031%=      5-min Rain = 0
KSW1 120408Z 04006KT 07/M09 A3033 RMK A01 T00681092  RH  031%=      5-min Rain = 0
KSW1 120409Z 04006KT 07/M09 A3033 RMK A01 T00681092  RH  031%=      5-min Rain = 0
KSW1 120410Z 04006KT 07/M09 A3033 RMK A01 T00681092  RH  031%=      5-min Rain = 0
KSW1 120411Z 04006KT 07/M09 A3033 RMK A01 T00691091  RH  031%=      5-min Rain = 0
KSW1 120412Z 03006KT 07/M09 A3033 RMK A01 T00691091  RH  031%=      5-min Rain = 0
KSW1 120413Z 04006KT 07/M09 A3033 RMK A01 T00691091  RH  031%=      5-min Rain = 0
KSW1 120414Z 04006KT 07/M09 A3033 RMK A01 T00691091  RH  031%=      5-min Rain = 0
KSW1 120415Z 04006KT 07/M09 A3033 RMK A01 T00691092  RH  031%=      5-min Rain = 0
KSW1 120416Z 04006KT 07/M09 A3033 RMK A01 T00691091  RH  031%=      5-min Rain = 0
KSW1 120417Z 04006KT 07/M09 A3033 RMK A01 T00691090  RH  031%=      5-min Rain = 0
KSW1 120418Z 04006KT 07/M09 A3033 RMK A01 T00681090  RH  031%=      5-min Rain = 0
KSW1 120419Z 03007KT 07/M09 A3033 RMK A01 T00681090  RH  031%=      5-min Rain = 0
KSW1 120420Z 04007KT 07/M09 A3033 RMK A01 T00691090  RH  031%=      5-min Rain = 0
KSW1 120421Z 04007KT 07/M09 A3033 RMK A01 T00711090  RH  031%=      5-min Rain = 0
KSW1 120422Z 04007KT 07/M09 A3033 RMK A01 T00721090  RH  031%=      5-min Rain = 0
KSW1 120423Z 04007KT 07/M09 A3033 RMK A01 T00731090  RH  030%=      5-min Rain = 0
KSW1 120424Z 04007KT 07/M09 A3033 RMK A01 T00741090  RH  030%=      5-min Rain = 0
KSW1 120425Z 04007KT 07/M09 A3033 RMK A01 T00741090  RH  030%=      5-min Rain = 0
KSW1 120426Z 04007KT 07/M09 A3033 RMK A01 T00741089  RH  030%=      5-min Rain = 0
KSW1 120427Z 04007KT 07/M09 A3033 RMK A01 T00741089  RH  030%=      5-min Rain = 0
KSW1 120428Z 04007KT 07/M09 A3033 RMK A01 T00741089  RH  030%=      5-min Rain = 0
KSW1 120429Z 04007KT 07/M09 A3034 RMK A01 T00741089  RH  030%=      5-min Rain = 0
KSW1 120430Z 04007KT 07/M09 A3034 RMK A01 T00741089  RH  030%=      5-min Rain = 0
KSW1 120431Z 04008KT 07/M09 A3034 RMK A01 T00741088  RH  031%=      5-min Rain = 0
KSW1 120432Z 04008KT 07/M09 A3034 RMK A01 T00741087  RH  031%=      5-min Rain = 0
KSW1 120433Z 04008KT 07/M09 A3034 RMK A01 T00741087  RH  031%=      5-min Rain = 0
KSW1 120434Z 04008KT 07/M09 A3034 RMK A01 T00741086  RH  031%=      5-min Rain = 0
KSW1 120435Z 04008KT 07/M09 A3034 RMK A01 T00741086  RH  031%=      5-min Rain = 0
KSW1 120436Z 04008KT 07/M09 A3034 RMK A01 T00741085  RH  031%=      5-min Rain = 0
KSW1 120437Z 04008KT 07/M08 A3034 RMK A01 T00741084  RH  032%=      5-min Rain = 0
KSW1 120438Z 04007KT 07/M08 A3034 RMK A01 T00731084  RH  032%=      5-min Rain = 0
KSW1 120439Z 04007KT 07/M08 A3034 RMK A01 T00721083  RH  032%=      5-min Rain = 0
KSW1 120440Z 04007KT 07/M08 A3034 RMK A01 T00721082  RH  032%=      5-min Rain = 0
KSW1 120441Z 04006KT 07/M08 A3034 RMK A01 T00721082  RH  033%=      5-min Rain = 0
KSW1 120442Z 05006KT 07/M08 A3034 RMK A01 T00721082  RH  033%=      5-min Rain = 0
KSW1 120443Z 05006KT 07/M08 A3034 RMK A01 T00721081  RH  033%=      5-min Rain = 0
KSW1 120444Z 05007KT 07/M08 A3034 RMK A01 T00721081  RH  033%=      5-min Rain = 0
KSW1 120445Z 05006KT 07/M08 A3034 RMK A01 T00721080  RH  033%=      5-min Rain = 0
KSW1 120446Z 05006KT 07/M08 A3034 RMK A01 T00721079  RH  033%=      5-min Rain = 0
KSW1 120447Z 05006KT 07/M08 A3034 RMK A01 T00721079  RH  033%=      5-min Rain = 0
KSW1 120448Z 06006KT 07/M08 A3034 RMK A01 T00721079  RH  033%=      5-min Rain = 0
KSW1 120449Z 05007KT 07/M08 A3034 RMK A01 T00721079  RH  033%=      5-min Rain = 0
KSW1 120450Z 06007KT 07/M08 A3034 RMK A01 T00721079  RH  033%=      5-min Rain = 0
KSW1 120451Z 06007KT 07/M08 A3034 RMK A01 T00721078  RH  033%=      5-min Rain = 0
KSW1 120452Z 06007KT 07/M08 A3034 RMK A01 T00731079  RH  033%=      5-min Rain = 0
KSW1 120453Z 05007KT 07/M08 A3034 RMK A01 T00721080  RH  033%=      5-min Rain = 0
KSW1 120454Z 06007KT 07/M08 A3034 RMK A01 T00731079  RH  033%=      5-min Rain = 0
KSW1 120455Z 06008KT 07/M08 A3034 RMK A01 T00731080  RH  033%=      5-min Rain = 0
KSW1 120456Z 06007KT 07/M08 A3034 RMK A01 T00741080  RH  033%=      5-min Rain = 0
KSW1 120457Z 06006KT 07/M08 A3034 RMK A01 T00741080  RH  033%=      5-min Rain = 0
KSW1 120458Z 06007KT 07/M08 A3034 RMK A01 T00731079  RH  033%=      5-min Rain = 0
KSW1 120459Z 06007KT 07/M08 A3034 RMK A01 T00731079  RH  033%=      5-min Rain = 0

Page generated in 0.0332 seconds.